Observation data for Menard on 06/21/2019      Previous  Date  Next       Current Mesonet Observations  Soil Data  Daily Summary Page  Observations in Plain Language
KMD1 210500Z 17008KT 28/24 A2984 RMK A01 T02820235  RH  076%=      5-min Rain = 0
KMD1 210501Z 17008KT 28/24 A2984 RMK A01 T02820235  RH  076%=      5-min Rain = 0
KMD1 210502Z 16008KT 28/24 A2984 RMK A01 T02820236  RH  076%=      5-min Rain = 0
KMD1 210503Z 17008G13KT 28/24 A2984 RMK A01 T02820236  RH  076%=      5-min Rain = 0
KMD1 210504Z 18010KT 28/24 A2984 RMK A01 T02810236  RH  077%=      5-min Rain = 0
KMD1 210505Z 17008KT 28/24 A2984 RMK A01 T02800235  RH  076%=      5-min Rain = 0
KMD1 210506Z 16007KT 28/24 A2984 RMK A01 T02810235  RH  076%=      5-min Rain = 0
KMD1 210507Z 17007KT 28/24 A2984 RMK A01 T02800236  RH  077%=      5-min Rain = 0
KMD1 210508Z 17008KT 28/24 A2984 RMK A01 T02790236  RH  077%=      5-min Rain = 0
KMD1 210509Z 16009KT 28/24 A2984 RMK A01 T02790236  RH  077%=      5-min Rain = 0
KMD1 210510Z 16007KT 28/24 A2984 RMK A01 T02790236  RH  077%=      5-min Rain = 0
KMD1 210511Z 17006KT 28/24 A2984 RMK A01 T02790236  RH  077%=      5-min Rain = 0
KMD1 210512Z 17008KT 28/24 A2984 RMK A01 T02790236  RH  077%=      5-min Rain = 0
KMD1 210513Z 17011KT 28/24 A2984 RMK A01 T02790236  RH  078%=      5-min Rain = 0
KMD1 210514Z 17010KT 28/24 A2984 RMK A01 T02790236  RH  077%=      5-min Rain = 0
KMD1 210515Z 17010KT 28/24 A2984 RMK A01 T02790236  RH  077%=      5-min Rain = 0
KMD1 210516Z 16009KT 28/24 A2984 RMK A01 T02790236  RH  077%=      5-min Rain = 0
KMD1 210517Z 17007KT 28/24 A2984 RMK A01 T02800236  RH  077%=      5-min Rain = 0
KMD1 210518Z 17008KT 28/24 A2984 RMK A01 T02790237  RH  078%=      5-min Rain = 0
KMD1 210519Z 16010KT 28/24 A2984 RMK A01 T02790237  RH  078%=      5-min Rain = 0
KMD1 210520Z 17007KT 28/24 A2984 RMK A01 T02790236  RH  078%=      5-min Rain = 0
KMD1 210521Z 16007KT 28/24 A2984 RMK A01 T02800237  RH  078%=      5-min Rain = 0
KMD1 210522Z 17008KT 28/24 A2984 RMK A01 T02790237  RH  078%=      5-min Rain = 0
KMD1 210523Z 17007KT 28/24 A2984 RMK A01 T02780237  RH  078%=      5-min Rain = 0
KMD1 210524Z 17007KT 28/24 A2984 RMK A01 T02780237  RH  078%=      5-min Rain = 0
KMD1 210525Z 17008KT 28/24 A2984 RMK A01 T02780237  RH  079%=      5-min Rain = 0
KMD1 210526Z 18010G15KT 28/24 A2984 RMK A01 T02770238  RH  079%=      5-min Rain = 0
KMD1 210527Z 17008KT 28/24 A2984 RMK A01 T02780237  RH  079%=      5-min Rain = 0
KMD1 210528Z 17008KT 28/24 A2984 RMK A01 T02780237  RH  078%=      5-min Rain = 0
KMD1 210529Z 17008KT 28/24 A2984 RMK A01 T02780238  RH  079%=      5-min Rain = 0
KMD1 210530Z 18009KT 28/24 A2984 RMK A01 T02770238  RH  079%=      5-min Rain = 0
KMD1 210531Z 17011KT 28/24 A2984 RMK A01 T02770238  RH  079%=      5-min Rain = 0
KMD1 210532Z 17015KT 28/24 A2984 RMK A01 T02780238  RH  079%=      5-min Rain = 0
KMD1 210533Z 17012KT 28/24 A2984 RMK A01 T02790238  RH  079%=      5-min Rain = 0
KMD1 210534Z 17008KT 28/24 A2984 RMK A01 T02800239  RH  078%=      5-min Rain = 0
KMD1 210535Z 17008KT 28/24 A2984 RMK A01 T02800239  RH  078%=      5-min Rain = 0
KMD1 210536Z 17007KT 28/24 A2984 RMK A01 T02800239  RH  079%=      5-min Rain = 0
KMD1 210537Z 17007KT 28/24 A2984 RMK A01 T02790239  RH  079%=      5-min Rain = 0
KMD1 210538Z 17009KT 28/24 A2984 RMK A01 T02780240  RH  079%=      5-min Rain = 0
KMD1 210539Z 17008KT 28/24 A2984 RMK A01 T02780240  RH  080%=      5-min Rain = 0
KMD1 210540Z 17010KT 28/24 A2984 RMK A01 T02780240  RH  080%=      5-min Rain = 0
KMD1 210541Z 17010KT 28/24 A2984 RMK A01 T02770240  RH  080%=      5-min Rain = 0
KMD1 210542Z 18008KT 28/24 A2984 RMK A01 T02770240  RH  080%=      5-min Rain = 0
KMD1 210543Z 17006KT 28/24 A2984 RMK A01 T02770240  RH  080%=      5-min Rain = 0
KMD1 210544Z 18006KT 28/24 A2984 RMK A01 T02770240  RH  080%=      5-min Rain = 0
KMD1 210545Z 18007KT 28/24 A2984 RMK A01 T02770241  RH  081%=      5-min Rain = 0
KMD1 210546Z 16008KT 28/24 A2984 RMK A01 T02760241  RH  081%=      5-min Rain = 0
KMD1 210547Z 18010KT 28/24 A2984 RMK A01 T02770241  RH  081%=      5-min Rain = 0
KMD1 210548Z 18008KT 28/24 A2984 RMK A01 T02770241  RH  081%=      5-min Rain = 0
KMD1 210549Z 17006KT 28/24 A2984 RMK A01 T02780241  RH  080%=      5-min Rain = 0
KMD1 210550Z 18006KT 28/24 A2984 RMK A01 T02780241  RH  081%=      5-min Rain = 0
KMD1 210551Z 18006KT 28/24 A2984 RMK A01 T02770241  RH  081%=      5-min Rain = 0
KMD1 210552Z 17007KT 28/24 A2984 RMK A01 T02770242  RH  081%=      5-min Rain = 0
KMD1 210553Z 18006KT 28/24 A2984 RMK A01 T02760242  RH  081%=      5-min Rain = 0
KMD1 210554Z 18008KT 28/24 A2984 RMK A01 T02760242  RH  082%=      5-min Rain = 0
KMD1 210555Z 17006KT 28/24 A2984 RMK A01 T02760241  RH  082%=      5-min Rain = 0
KMD1 210556Z 17008KT 28/24 A2984 RMK A01 T02760242  RH  082%=      5-min Rain = 0
KMD1 210557Z 17007KT 28/24 A2984 RMK A01 T02760242  RH  082%=      5-min Rain = 0
KMD1 210558Z 16005KT 28/24 A2984 RMK A01 T02750242  RH  082%=      5-min Rain = 0
KMD1 210559Z 17007KT 28/24 A2984 RMK A01 T02750242  RH  082%=      5-min Rain = 0
KMD1 210600Z 18007KT 28/24 A2984 RMK A01 T02750242  RH  082%=      5-min Rain = 0
KMD1 210601Z 18006KT 28/24 A2984 RMK A01 T02750242  RH  082%=      5-min Rain = 0
KMD1 210602Z 17007KT 28/24 A2984 RMK A01 T02750242  RH  083%=      5-min Rain = 0
KMD1 210603Z 16008KT 27/24 A2984 RMK A01 T02740242  RH  083%=      5-min Rain = 0
KMD1 210604Z 18005KT 28/24 A2984 RMK A01 T02750242  RH  083%=      5-min Rain = 0
KMD1 210605Z 18006KT 28/24 A2984 RMK A01 T02750243  RH  083%=      5-min Rain = 0
KMD1 210606Z 17009KT 27/24 A2984 RMK A01 T02740242  RH  083%=      5-min Rain = 0
KMD1 210607Z 17008KT 27/24 A2984 RMK A01 T02740242  RH  083%=      5-min Rain = 0
KMD1 210608Z 18008KT 27/24 A2984 RMK A01 T02740242  RH  082%=      5-min Rain = 0
KMD1 210609Z 18007KT 28/24 A2984 RMK A01 T02750242  RH  083%=      5-min Rain = 0
KMD1 210610Z 17006KT 28/24 A2984 RMK A01 T02750242  RH  082%=      5-min Rain = 0
KMD1 210611Z 17010KT 28/24 A2984 RMK A01 T02750243  RH  083%=      5-min Rain = 0
KMD1 210612Z 18005KT 28/24 A2984 RMK A01 T02750243  RH  083%=      5-min Rain = 0
KMD1 210613Z 17005KT 28/24 A2984 RMK A01 T02750243  RH  083%=      5-min Rain = 0
KMD1 210614Z 17006KT 28/24 A2984 RMK A01 T02750243  RH  083%=      5-min Rain = 0
KMD1 210615Z 17006KT 27/24 A2984 RMK A01 T02740243  RH  083%=      5-min Rain = 0
KMD1 210616Z 17004KT 27/24 A2984 RMK A01 T02740243  RH  083%=      5-min Rain = 0
KMD1 210617Z 17007KT 27/24 A2984 RMK A01 T02740243  RH  083%=      5-min Rain = 0
KMD1 210618Z 17008KT 27/24 A2984 RMK A01 T02740243  RH  083%=      5-min Rain = 0
KMD1 210619Z 17007KT 27/24 A2984 RMK A01 T02740242  RH  083%=      5-min Rain = 0
KMD1 210620Z 18006KT 27/24 A2984 RMK A01 T02740242  RH  083%=      5-min Rain = 0
KMD1 210621Z 17007KT 27/24 A2984 RMK A01 T02740242  RH  083%=      5-min Rain = 0
KMD1 210622Z 17009KT 27/24 A2984 RMK A01 T02740242  RH  083%=      5-min Rain = 0
KMD1 210623Z 16006KT 28/24 A2984 RMK A01 T02750242  RH  082%=      5-min Rain = 0
KMD1 210624Z 17005KT 28/24 A2984 RMK A01 T02750243  RH  083%=      5-min Rain = 0
KMD1 210625Z 17005KT 27/24 A2984 RMK A01 T02740243  RH  083%=      5-min Rain = 0
KMD1 210626Z 17005KT 27/24 A2984 RMK A01 T02740243  RH  083%=      5-min Rain = 0
KMD1 210627Z 17005KT 27/24 A2984 RMK A01 T02740243  RH  083%=      5-min Rain = 0
KMD1 210628Z 17005KT 27/24 A2984 RMK A01 T02740242  RH  083%=      5-min Rain = 0
KMD1 210629Z 18007KT 27/24 A2984 RMK A01 T02730242  RH  083%=      5-min Rain = 0
KMD1 210630Z 17006KT 27/24 A2984 RMK A01 T02730242  RH  083%=      5-min Rain = 0
KMD1 210631Z 18008KT 27/24 A2984 RMK A01 T02730242  RH  083%=      5-min Rain = 0
KMD1 210632Z 17006KT 27/24 A2984 RMK A01 T02740242  RH  083%=      5-min Rain = 0
KMD1 210633Z 17007KT 27/24 A2984 RMK A01 T02740242  RH  083%=      5-min Rain = 0
KMD1 210634Z 18008KT 27/24 A2984 RMK A01 T02740242  RH  083%=      5-min Rain = 0
KMD1 210635Z 17006KT 27/24 A2984 RMK A01 T02740241  RH  082%=      5-min Rain = 0
KMD1 210636Z 17007KT 28/24 A2984 RMK A01 T02750242  RH  082%=      5-min Rain = 0
KMD1 210637Z 17007KT 28/24 A2984 RMK A01 T02750242  RH  082%=      5-min Rain = 0
KMD1 210638Z 17008KT 28/24 A2984 RMK A01 T02750242  RH  082%=      5-min Rain = 0
KMD1 210639Z 18006KT 28/24 A2984 RMK A01 T02750242  RH  082%=      5-min Rain = 0
KMD1 210640Z 17006KT 28/24 A2984 RMK A01 T02750242  RH  082%=      5-min Rain = 0
KMD1 210641Z 17008KT 28/24 A2984 RMK A01 T02750242  RH  082%=      5-min Rain = 0
KMD1 210642Z 17005KT 27/24 A2984 RMK A01 T02740242  RH  082%=      5-min Rain = 0
KMD1 210643Z 16007KT 27/24 A2984 RMK A01 T02740242  RH  083%=      5-min Rain = 0
KMD1 210644Z 18006KT 27/24 A2984 RMK A01 T02740242  RH  083%=      5-min Rain = 0
KMD1 210645Z 17008KT 27/24 A2984 RMK A01 T02740242  RH  082%=      5-min Rain = 0
KMD1 210646Z 17007KT 27/24 A2984 RMK A01 T02740242  RH  083%=      5-min Rain = 0
KMD1 210647Z 17007KT 27/24 A2984 RMK A01 T02740242  RH  083%=      5-min Rain = 0
KMD1 210648Z 17008KT 27/24 A2984 RMK A01 T02730242  RH  083%=      5-min Rain = 0
KMD1 210649Z 16008KT 27/24 A2984 RMK A01 T02730241  RH  083%=      5-min Rain = 0
KMD1 210650Z 17009KT 27/24 A2984 RMK A01 T02740241  RH  082%=      5-min Rain = 0
KMD1 210651Z 17008KT 27/24 A2984 RMK A01 T02740241  RH  082%=      5-min Rain = 0
KMD1 210652Z 17008KT 28/24 A2984 RMK A01 T02750241  RH  082%=      5-min Rain = 0
KMD1 210653Z 17010KT 28/24 A2984 RMK A01 T02750242  RH  082%=      5-min Rain = 0
KMD1 210654Z 18010KT 28/24 A2984 RMK A01 T02750242  RH  082%=      5-min Rain = 0
KMD1 210655Z 17008KT 28/24 A2984 RMK A01 T02750241  RH  082%=      5-min Rain = 0
KMD1 210656Z 18007KT 28/24 A2984 RMK A01 T02750242  RH  082%=      5-min Rain = 0
KMD1 210657Z 17007KT 28/24 A2984 RMK A01 T02760242  RH  082%=      5-min Rain = 0
KMD1 210658Z 18007KT 28/24 A2984 RMK A01 T02750242  RH  082%=      5-min Rain = 0
KMD1 210659Z 17005KT 28/24 A2984 RMK A01 T02750242  RH  082%=      5-min Rain = 0
KMD1 210700Z 18009KT 28/24 A2984 RMK A01 T02750242  RH  082%=      5-min Rain = 0
KMD1 210701Z 17009KT 28/24 A2984 RMK A01 T02750241  RH  082%=      5-min Rain = 0
KMD1 210702Z 17007KT 28/24 A2984 RMK A01 T02750241  RH  082%=      5-min Rain = 0
KMD1 210703Z 17004KT 28/24 A2984 RMK A01 T02750241  RH  082%=      5-min Rain = 0
KMD1 210704Z 17006KT 28/24 A2984 RMK A01 T02750242  RH  082%=      5-min Rain = 0
KMD1 210705Z 17009KT 27/24 A2984 RMK A01 T02740242  RH  082%=      5-min Rain = 0
KMD1 210706Z 18007KT 27/24 A2984 RMK A01 T02740241  RH  082%=      5-min Rain = 0
KMD1 210707Z 17007KT 27/24 A2984 RMK A01 T02740242  RH  082%=      5-min Rain = 0
KMD1 210708Z 18009KT 27/24 A2984 RMK A01 T02730241  RH  083%=      5-min Rain = 0
KMD1 210709Z 18009KT 27/24 A2984 RMK A01 T02740241  RH  082%=      5-min Rain = 0
KMD1 210710Z 16009KT 27/24 A2984 RMK A01 T02740241  RH  082%=      5-min Rain = 0
KMD1 210711Z 18008KT 27/24 A2984 RMK A01 T02740241  RH  082%=      5-min Rain = 0
KMD1 210712Z 18007KT 27/24 A2984 RMK A01 T02740241  RH  082%=      5-min Rain = 0
KMD1 210713Z 17007KT 27/24 A2984 RMK A01 T02740241  RH  083%=      5-min Rain = 0
KMD1 210714Z 18007KT 27/24 A2984 RMK A01 T02730242  RH  083%=      5-min Rain = 0
KMD1 210715Z 18008KT 27/24 A2984 RMK A01 T02730241  RH  083%=      5-min Rain = 0
KMD1 210716Z 17007KT 27/24 A2984 RMK A01 T02730241  RH  083%=      5-min Rain = 0
KMD1 210717Z 17007KT 27/24 A2984 RMK A01 T02730242  RH  083%=      5-min Rain = 0
KMD1 210718Z 18007KT 27/24 A2984 RMK A01 T02730242  RH  083%=      5-min Rain = 0
KMD1 210719Z 17008KT 27/24 A2984 RMK A01 T02730241  RH  083%=      5-min Rain = 0
KMD1 210720Z 18006KT 27/24 A2984 RMK A01 T02720241  RH  083%=      5-min Rain = 0
KMD1 210721Z 18006KT 27/24 A2984 RMK A01 T02730242  RH  083%=      5-min Rain = 0
KMD1 210722Z 18007KT 27/24 A2984 RMK A01 T02720242  RH  084%=      5-min Rain = 0
KMD1 210723Z 17007KT 27/24 A2984 RMK A01 T02710242  RH  084%=      5-min Rain = 0
KMD1 210724Z 17008KT 27/24 A2984 RMK A01 T02710242  RH  084%=      5-min Rain = 0
KMD1 210725Z 16008KT 27/24 A2984 RMK A01 T02710242  RH  084%=      5-min Rain = 0
KMD1 210726Z 18008KT 27/24 A2984 RMK A01 T02710242  RH  084%=      5-min Rain = 0
KMD1 210727Z 17006KT 27/24 A2984 RMK A01 T02710241  RH  084%=      5-min Rain = 0
KMD1 210728Z 17010KT 27/24 A2984 RMK A01 T02710241  RH  084%=      5-min Rain = 0
KMD1 210729Z 17009KT 27/24 A2984 RMK A01 T02710241  RH  084%=      5-min Rain = 0
KMD1 210730Z 18010KT 27/24 A2983 RMK A01 T02710241  RH  084%=      5-min Rain = 0
KMD1 210731Z 18008G14KT 27/24 A2983 RMK A01 T02710241  RH  083%=      5-min Rain = 0
KMD1 210732Z 18007KT 27/24 A2983 RMK A01 T02710241  RH  084%=      5-min Rain = 0
KMD1 210733Z 17007KT 27/24 A2983 RMK A01 T02710241  RH  084%=      5-min Rain = 0
KMD1 210734Z 17009KT 27/24 A2983 RMK A01 T02710241  RH  084%=      5-min Rain = 0
KMD1 210735Z 18008KT 27/24 A2983 RMK A01 T02700241  RH  084%=      5-min Rain = 0
KMD1 210736Z 17007KT 27/24 A2983 RMK A01 T02700241  RH  084%=      5-min Rain = 0
KMD1 210737Z 17006KT 27/24 A2983 RMK A01 T02700241  RH  084%=      5-min Rain = 0
KMD1 210738Z 17007KT 27/24 A2983 RMK A01 T02690241  RH  085%=      5-min Rain = 0
KMD1 210739Z 19008KT 27/24 A2983 RMK A01 T02690241  RH  085%=      5-min Rain = 0
KMD1 210740Z 17007KT 27/24 A2983 RMK A01 T02690240  RH  085%=      5-min Rain = 0
KMD1 210741Z 17007KT 27/24 A2983 RMK A01 T02690241  RH  085%=      5-min Rain = 0
KMD1 210742Z 17008KT 27/24 A2983 RMK A01 T02680241  RH  085%=      5-min Rain = 0
KMD1 210743Z 17007KT 27/24 A2983 RMK A01 T02680241  RH  085%=      5-min Rain = 0
KMD1 210744Z 16007KT 27/24 A2983 RMK A01 T02680240  RH  085%=      5-min Rain = 0
KMD1 210745Z 16006KT 27/24 A2984 RMK A01 T02680241  RH  085%=      5-min Rain = 0
KMD1 210746Z 17006KT 27/24 A2983 RMK A01 T02670241  RH  085%=      5-min Rain = 0
KMD1 210747Z 17007KT 27/24 A2983 RMK A01 T02670240  RH  085%=      5-min Rain = 0
KMD1 210748Z 17007KT 27/24 A2983 RMK A01 T02670240  RH  085%=      5-min Rain = 0
KMD1 210749Z 16007KT 27/24 A2983 RMK A01 T02670241  RH  085%=      5-min Rain = 0
KMD1 210750Z 17007KT 27/24 A2983 RMK A01 T02670240  RH  085%=      5-min Rain = 0
KMD1 210751Z 18007KT 27/24 A2983 RMK A01 T02670240  RH  085%=      5-min Rain = 0
KMD1 210752Z 17008KT 27/24 A2983 RMK A01 T02660240  RH  086%=      5-min Rain = 0
KMD1 210753Z 17007KT 27/24 A2983 RMK A01 T02660240  RH  086%=      5-min Rain = 0
KMD1 210754Z 15009KT 27/24 A2983 RMK A01 T02660240  RH  085%=      5-min Rain = 0
KMD1 210755Z 16009KT 27/24 A2983 RMK A01 T02660240  RH  085%=      5-min Rain = 0
KMD1 210756Z 17007KT 27/24 A2983 RMK A01 T02670240  RH  085%=      5-min Rain = 0
KMD1 210757Z 17005KT 27/24 A2983 RMK A01 T02680240  RH  085%=      5-min Rain = 0
KMD1 210758Z 17007KT 27/24 A2983 RMK A01 T02670240  RH  085%=      5-min Rain = 0
KMD1 210759Z 17007KT 27/24 A2983 RMK A01 T02670240  RH  085%=      5-min Rain = 0
KMD1 210800Z 17006KT 27/24 A2983 RMK A01 T02670240  RH  085%=      5-min Rain = 0
KMD1 210801Z 17008KT 27/24 A2983 RMK A01 T02670240  RH  085%=      5-min Rain = 0
KMD1 210802Z 17008KT 27/24 A2983 RMK A01 T02660240  RH  086%=      5-min Rain = 0
KMD1 210803Z 16007KT 27/24 A2983 RMK A01 T02660239  RH  086%=      5-min Rain = 0
KMD1 210804Z 17005KT 27/24 A2983 RMK A01 T02660240  RH  086%=      5-min Rain = 0
KMD1 210805Z 18006KT 27/24 A2983 RMK A01 T02660240  RH  086%=      5-min Rain = 0
KMD1 210806Z 17005KT 27/24 A2983 RMK A01 T02660240  RH  086%=      5-min Rain = 0
KMD1 210807Z 17007KT 27/24 A2983 RMK A01 T02650240  RH  086%=      5-min Rain = 0
KMD1 210808Z 17006KT 27/24 A2983 RMK A01 T02650240  RH  086%=      5-min Rain = 0
KMD1 210809Z 16010G15KT 27/24 A2983 RMK A01 T02650240  RH  086%=      5-min Rain = 0
KMD1 210810Z 17011KT 27/24 A2983 RMK A01 T02650240  RH  086%=      5-min Rain = 0
KMD1 210811Z 17012KT 27/24 A2983 RMK A01 T02650239  RH  086%=      5-min Rain = 0
KMD1 210812Z 17010KT 27/24 A2983 RMK A01 T02660240  RH  086%=      5-min Rain = 0
KMD1 210813Z 16008KT 27/24 A2983 RMK A01 T02660240  RH  085%=      5-min Rain = 0
KMD1 210814Z 17011KT 27/24 A2983 RMK A01 T02660240  RH  086%=      5-min Rain = 0
KMD1 210815Z 17012KT 27/24 A2983 RMK A01 T02650240  RH  086%=      5-min Rain = 0
KMD1 210816Z 17009KT 27/24 A2983 RMK A01 T02650240  RH  086%=      5-min Rain = 0
KMD1 210817Z 18010G15KT 27/24 A2983 RMK A01 T02650240  RH  086%=      5-min Rain = 0
KMD1 210818Z 17010KT 27/24 A2983 RMK A01 T02650240  RH  086%=      5-min Rain = 0
KMD1 210819Z 17011KT 27/24 A2983 RMK A01 T02650240  RH  086%=      5-min Rain = 0
KMD1 210820Z 17011KT 27/24 A2983 RMK A01 T02650240  RH  086%=      5-min Rain = 0
KMD1 210821Z 17010KT 27/24 A2983 RMK A01 T02650240  RH  086%=      5-min Rain = 0
KMD1 210822Z 17008KT 27/24 A2983 RMK A01 T02650240  RH  086%=      5-min Rain = 0
KMD1 210823Z 17008KT 27/24 A2983 RMK A01 T02650240  RH  086%=      5-min Rain = 0
KMD1 210824Z 18008KT 27/24 A2983 RMK A01 T02650240  RH  086%=      5-min Rain = 0
KMD1 210825Z 18007KT 27/24 A2983 RMK A01 T02650240  RH  086%=      5-min Rain = 0
KMD1 210826Z 17011KT 26/24 A2983 RMK A01 T02640240  RH  087%=      5-min Rain = 0
KMD1 210827Z 18009KT 26/24 A2983 RMK A01 T02640240  RH  087%=      5-min Rain = 0
KMD1 210828Z 17007KT 26/24 A2983 RMK A01 T02640240  RH  087%=      5-min Rain = 0
KMD1 210829Z 17009KT 26/24 A2983 RMK A01 T02640240  RH  087%=      5-min Rain = 0
KMD1 210830Z 18010KT 26/24 A2983 RMK A01 T02640240  RH  087%=      5-min Rain = 0
KMD1 210831Z 18008KT 26/24 A2983 RMK A01 T02640240  RH  086%=      5-min Rain = 0
KMD1 210832Z 18010KT 26/24 A2983 RMK A01 T02640239  RH  086%=      5-min Rain = 0
KMD1 210833Z 18011KT 26/24 A2983 RMK A01 T02640240  RH  087%=      5-min Rain = 0
KMD1 210834Z 17009KT 26/24 A2983 RMK A01 T02640239  RH  086%=      5-min Rain = 0
KMD1 210835Z 17012G18KT 26/24 A2983 RMK A01 T02640239  RH  086%=      5-min Rain = 0
KMD1 210836Z 18012KT 26/24 A2983 RMK A01 T02640239  RH  086%=      5-min Rain = 0
KMD1 210837Z 17009KT 26/24 A2983 RMK A01 T02640239  RH  086%=      5-min Rain = 0
KMD1 210838Z 17012G17KT 26/24 A2983 RMK A01 T02640239  RH  086%=      5-min Rain = 0
KMD1 210839Z 17012KT 26/24 A2983 RMK A01 T02640239  RH  086%=      5-min Rain = 0
KMD1 210840Z 17010KT 26/24 A2983 RMK A01 T02640239  RH  086%=      5-min Rain = 0
KMD1 210841Z 17009KT 26/24 A2983 RMK A01 T02640239  RH  086%=      5-min Rain = 0
KMD1 210842Z 18009KT 26/24 A2983 RMK A01 T02640239  RH  086%=      5-min Rain = 0
KMD1 210843Z 17009KT 26/24 A2983 RMK A01 T02640239  RH  086%=      5-min Rain = 0
KMD1 210844Z 18010KT 26/24 A2983 RMK A01 T02630239  RH  087%=      5-min Rain = 0
KMD1 210845Z 17009KT 26/24 A2983 RMK A01 T02630239  RH  087%=      5-min Rain = 0
KMD1 210846Z 17011KT 26/24 A2983 RMK A01 T02630239  RH  087%=      5-min Rain = 0
KMD1 210847Z 17012KT 26/24 A2983 RMK A01 T02630239  RH  086%=      5-min Rain = 0
KMD1 210848Z 18010KT 26/24 A2983 RMK A01 T02630238  RH  086%=      5-min Rain = 0
KMD1 210849Z 17011KT 26/24 A2983 RMK A01 T02630238  RH  086%=      5-min Rain = 0
KMD1 210850Z 18013KT 26/24 A2983 RMK A01 T02630238  RH  086%=      5-min Rain = 0
KMD1 210851Z 17013KT 26/24 A2983 RMK A01 T02630238  RH  086%=      5-min Rain = 0
KMD1 210852Z 18009KT 26/24 A2983 RMK A01 T02630238  RH  086%=      5-min Rain = 0
KMD1 210853Z 18010KT 26/24 A2983 RMK A01 T02640238  RH  086%=      5-min Rain = 0
KMD1 210854Z 18012KT 26/24 A2983 RMK A01 T02630238  RH  086%=      5-min Rain = 0
KMD1 210855Z 18010KT 26/24 A2983 RMK A01 T02640238  RH  086%=      5-min Rain = 0
KMD1 210856Z 18010KT 26/24 A2983 RMK A01 T02630238  RH  086%=      5-min Rain = 0
KMD1 210857Z 17009KT 26/24 A2983 RMK A01 T02630238  RH  086%=      5-min Rain = 0
KMD1 210858Z 18011KT 26/24 A2984 RMK A01 T02620238  RH  087%=      5-min Rain = 0
KMD1 210859Z 18010KT 26/24 A2983 RMK A01 T02620238  RH  087%=      5-min Rain = 0
KMD1 210900Z 17008KT 26/24 A2984 RMK A01 T02620238  RH  087%=      5-min Rain = 0
KMD1 210901Z 18010KT 26/24 A2983 RMK A01 T02610238  RH  087%=      5-min Rain = 0
KMD1 210902Z 18012G18KT 26/24 A2984 RMK A01 T02610237  RH  087%=      5-min Rain = 0
KMD1 210903Z 18012KT 26/24 A2983 RMK A01 T02610237  RH  087%=      5-min Rain = 0
KMD1 210904Z 18009KT 26/24 A2984 RMK A01 T02620237  RH  086%=      5-min Rain = 0
KMD1 210905Z 18008KT 26/24 A2984 RMK A01 T02620237  RH  086%=      5-min Rain = 0
KMD1 210906Z 18009KT 26/24 A2984 RMK A01 T02620238  RH  087%=      5-min Rain = 0
KMD1 210907Z 17011KT 26/24 A2984 RMK A01 T02610237  RH  087%=      5-min Rain = 0
KMD1 210908Z 18012KT 26/24 A2984 RMK A01 T02610237  RH  087%=      5-min Rain = 0
KMD1 210909Z 18010G17KT 26/24 A2984 RMK A01 T02610237  RH  086%=      5-min Rain = 0
KMD1 210910Z 17011KT 26/24 A2984 RMK A01 T02610237  RH  086%=      5-min Rain = 0
KMD1 210911Z 18009KT 26/24 A2984 RMK A01 T02610237  RH  086%=      5-min Rain = 0
KMD1 210912Z 17007KT 26/24 A2984 RMK A01 T02610237  RH  086%=      5-min Rain = 0
KMD1 210913Z 17011KT 26/24 A2984 RMK A01 T02610237  RH  087%=      5-min Rain = 0
KMD1 210914Z 18012KT 26/24 A2984 RMK A01 T02610236  RH  086%=      5-min Rain = 0
KMD1 210915Z 19009KT 26/24 A2984 RMK A01 T02610236  RH  086%=      5-min Rain = 0
KMD1 210916Z 18008KT 26/24 A2984 RMK A01 T02610236  RH  087%=      5-min Rain = 0
KMD1 210917Z 17008KT 26/24 A2984 RMK A01 T02600237  RH  087%=      5-min Rain = 0
KMD1 210918Z 17007KT 26/24 A2984 RMK A01 T02600236  RH  087%=      5-min Rain = 0
KMD1 210919Z 18008KT 26/24 A2984 RMK A01 T02590236  RH  087%=      5-min Rain = 0
KMD1 210920Z 18010KT 26/24 A2984 RMK A01 T02590236  RH  087%=      5-min Rain = 0
KMD1 210921Z 18013KT 26/24 A2984 RMK A01 T02590236  RH  087%=      5-min Rain = 0
KMD1 210922Z 17010KT 26/24 A2984 RMK A01 T02600235  RH  086%=      5-min Rain = 0
KMD1 210923Z 17012KT 26/23 A2984 RMK A01 T02600234  RH  086%=      5-min Rain = 0
KMD1 210924Z 17009KT 26/24 A2984 RMK A01 T02600235  RH  086%=      5-min Rain = 0
KMD1 210925Z 18010KT 26/24 A2984 RMK A01 T02600235  RH  086%=      5-min Rain = 0
KMD1 210926Z 18011KT 26/24 A2984 RMK A01 T02590235  RH  086%=      5-min Rain = 0
KMD1 210927Z 18010KT 26/23 A2984 RMK A01 T02590234  RH  086%=      5-min Rain = 0
KMD1 210928Z 17009KT 26/23 A2984 RMK A01 T02590234  RH  086%=      5-min Rain = 0
KMD1 210929Z 18010KT 26/23 A2984 RMK A01 T02590234  RH  086%=      5-min Rain = 0
KMD1 210930Z 17009KT 26/23 A2984 RMK A01 T02590234  RH  086%=      5-min Rain = 0
KMD1 210931Z 18009KT 26/23 A2984 RMK A01 T02590234  RH  086%=      5-min Rain = 0
KMD1 210932Z 17009KT 26/23 A2984 RMK A01 T02580234  RH  086%=      5-min Rain = 0
KMD1 210933Z 18010KT 26/23 A2984 RMK A01 T02580234  RH  086%=      5-min Rain = 0
KMD1 210934Z 18010KT 26/23 A2984 RMK A01 T02580233  RH  086%=      5-min Rain = 0
KMD1 210935Z 17008KT 26/23 A2984 RMK A01 T02590233  RH  086%=      5-min Rain = 0
KMD1 210936Z 18009KT 26/23 A2984 RMK A01 T02590233  RH  086%=      5-min Rain = 0
KMD1 210937Z 18008KT 26/23 A2984 RMK A01 T02590233  RH  086%=      5-min Rain = 0
KMD1 210938Z 18010KT 26/23 A2984 RMK A01 T02580233  RH  086%=      5-min Rain = 0
KMD1 210939Z 18010KT 26/23 A2984 RMK A01 T02580232  RH  086%=      5-min Rain = 0
KMD1 210940Z 18008KT 26/23 A2984 RMK A01 T02580232  RH  085%=      5-min Rain = 0
KMD1 210941Z 18009KT 26/23 A2984 RMK A01 T02580232  RH  085%=      5-min Rain = 0
KMD1 210942Z 18007KT 26/23 A2984 RMK A01 T02580232  RH  085%=      5-min Rain = 0
KMD1 210943Z 18010KT 26/23 A2984 RMK A01 T02570232  RH  086%=      5-min Rain = 0
KMD1 210944Z 18009KT 26/23 A2984 RMK A01 T02570231  RH  086%=      5-min Rain = 0
KMD1 210945Z 18010KT 26/23 A2984 RMK A01 T02570231  RH  086%=      5-min Rain = 0
KMD1 210946Z 18008KT 26/23 A2984 RMK A01 T02570231  RH  085%=      5-min Rain = 0
KMD1 210947Z 17007KT 26/23 A2984 RMK A01 T02570231  RH  086%=      5-min Rain = 0
KMD1 210948Z 18007KT 26/23 A2984 RMK A01 T02560231  RH  086%=      5-min Rain = 0
KMD1 210949Z 18008KT 26/23 A2984 RMK A01 T02560230  RH  086%=      5-min Rain = 0
KMD1 210950Z 17008KT 26/23 A2984 RMK A01 T02560230  RH  086%=      5-min Rain = 0
KMD1 210951Z 17009KT 26/23 A2984 RMK A01 T02560230  RH  086%=      5-min Rain = 0
KMD1 210952Z 18009KT 26/23 A2984 RMK A01 T02560230  RH  086%=      5-min Rain = 0
KMD1 210953Z 18009KT 26/23 A2984 RMK A01 T02550229  RH  085%=      5-min Rain = 0
KMD1 210954Z 17009KT 26/23 A2984 RMK A01 T02550229  RH  085%=      5-min Rain = 0
KMD1 210955Z 17009KT 26/23 A2984 RMK A01 T02550228  RH  085%=      5-min Rain = 0
KMD1 210956Z 18007KT 26/23 A2984 RMK A01 T02550228  RH  085%=      5-min Rain = 0
KMD1 210957Z 17009KT 26/23 A2984 RMK A01 T02550228  RH  085%=      5-min Rain = 0
KMD1 210958Z 18008KT 26/23 A2984 RMK A01 T02550227  RH  085%=      5-min Rain = 0
KMD1 210959Z 18008KT 26/23 A2984 RMK A01 T02550228  RH  085%=      5-min Rain = 0
KMD1 211000Z 18007KT 25/23 A2984 RMK A01 T02540227  RH  085%=      5-min Rain = 0
KMD1 211001Z 18009KT 25/23 A2984 RMK A01 T02540227  RH  085%=      5-min Rain = 0
KMD1 211002Z 18009KT 25/23 A2984 RMK A01 T02540226  RH  084%=      5-min Rain = 0
KMD1 211003Z 18008KT 25/23 A2984 RMK A01 T02540225  RH  084%=      5-min Rain = 0
KMD1 211004Z 17009KT 26/23 A2984 RMK A01 T02550225  RH  084%=      5-min Rain = 0
KMD1 211005Z 18007KT 26/23 A2984 RMK A01 T02550225  RH  084%=      5-min Rain = 0
KMD1 211006Z 17008KT 26/23 A2984 RMK A01 T02550225  RH  084%=      5-min Rain = 0
KMD1 211007Z 18006KT 26/23 A2984 RMK A01 T02550225  RH  084%=      5-min Rain = 0
KMD1 211008Z 18008KT 25/23 A2984 RMK A01 T02540225  RH  084%=      5-min Rain = 0
KMD1 211009Z 18007KT 25/23 A2984 RMK A01 T02540225  RH  084%=      5-min Rain = 0
KMD1 211010Z 18007KT 25/23 A2984 RMK A01 T02540225  RH  084%=      5-min Rain = 0
KMD1 211011Z 18007KT 25/23 A2984 RMK A01 T02540225  RH  084%=      5-min Rain = 0
KMD1 211012Z 17008KT 25/22 A2984 RMK A01 T02540224  RH  084%=      5-min Rain = 0
KMD1 211013Z 18007KT 25/22 A2984 RMK A01 T02530224  RH  084%=      5-min Rain = 0
KMD1 211014Z 17006KT 25/22 A2984 RMK A01 T02530224  RH  084%=      5-min Rain = 0
KMD1 211015Z 18007KT 25/22 A2984 RMK A01 T02530224  RH  084%=      5-min Rain = 0
KMD1 211016Z 18006KT 25/22 A2984 RMK A01 T02530223  RH  084%=      5-min Rain = 0
KMD1 211017Z 17005KT 25/22 A2984 RMK A01 T02530223  RH  084%=      5-min Rain = 0
KMD1 211018Z 17006KT 25/22 A2984 RMK A01 T02520223  RH  084%=      5-min Rain = 0
KMD1 211019Z 17007KT 25/22 A2984 RMK A01 T02520223  RH  084%=      5-min Rain = 0
KMD1 211020Z 17008KT 25/22 A2984 RMK A01 T02510223  RH  084%=      5-min Rain = 0
KMD1 211021Z 17005KT 25/22 A2984 RMK A01 T02510223  RH  084%=      5-min Rain = 0
KMD1 211022Z 17007G12KT 25/22 A2984 RMK A01 T02510223  RH  085%=      5-min Rain = 0
KMD1 211023Z 17009KT 25/22 A2984 RMK A01 T02510223  RH  084%=      5-min Rain = 0
KMD1 211024Z 17007KT 25/22 A2984 RMK A01 T02510222  RH  084%=      5-min Rain = 0
KMD1 211025Z 17007KT 25/22 A2984 RMK A01 T02510222  RH  084%=      5-min Rain = 0
KMD1 211026Z 17007KT 25/22 A2984 RMK A01 T02510222  RH  084%=      5-min Rain = 0
KMD1 211027Z 17007KT 25/22 A2984 RMK A01 T02510222  RH  084%=      5-min Rain = 0
KMD1 211028Z 16005KT 25/22 A2984 RMK A01 T02510222  RH  084%=      5-min Rain = 0
KMD1 211029Z 16007KT 25/22 A2985 RMK A01 T02510222  RH  084%=      5-min Rain = 0
KMD1 211030Z 17004KT 25/22 A2985 RMK A01 T02500222  RH  084%=      5-min Rain = 0
KMD1 211031Z 17006KT 25/22 A2985 RMK A01 T02500222  RH  084%=      5-min Rain = 0
KMD1 211032Z 17006KT 25/22 A2985 RMK A01 T02500222  RH  084%=      5-min Rain = 0
KMD1 211033Z 17006KT 25/22 A2985 RMK A01 T02490221  RH  084%=      5-min Rain = 0
KMD1 211034Z 16005KT 25/22 A2985 RMK A01 T02490221  RH  084%=      5-min Rain = 0
KMD1 211035Z 16005KT 25/22 A2985 RMK A01 T02490221  RH  085%=      5-min Rain = 0
KMD1 211036Z 17007KT 25/22 A2985 RMK A01 T02480221  RH  085%=      5-min Rain = 0
KMD1 211037Z 17007KT 25/22 A2985 RMK A01 T02480220  RH  085%=      5-min Rain = 0
KMD1 211038Z 16006KT 25/22 A2985 RMK A01 T02480220  RH  084%=      5-min Rain = 0
KMD1 211039Z 16007KT 25/22 A2985 RMK A01 T02470219  RH  084%=      5-min Rain = 0
KMD1 211040Z 16007KT 25/22 A2985 RMK A01 T02480219  RH  084%=      5-min Rain = 0
KMD1 211041Z 17007KT 25/22 A2985 RMK A01 T02480219  RH  084%=      5-min Rain = 0
KMD1 211042Z 16006KT 25/22 A2985 RMK A01 T02480219  RH  084%=      5-min Rain = 0
KMD1 211043Z 16005KT 25/22 A2985 RMK A01 T02480220  RH  084%=      5-min Rain = 0
KMD1 211044Z 16006KT 25/22 A2985 RMK A01 T02470219  RH  085%=      5-min Rain = 0
KMD1 211045Z 16006KT 25/22 A2985 RMK A01 T02470219  RH  085%=      5-min Rain = 0
KMD1 211046Z 16007KT 25/22 A2985 RMK A01 T02460219  RH  085%=      5-min Rain = 0
KMD1 211047Z 16009KT 25/22 A2985 RMK A01 T02460219  RH  085%=      5-min Rain = 0
KMD1 211048Z 16006KT 25/22 A2985 RMK A01 T02460219  RH  085%=      5-min Rain = 0
KMD1 211049Z 16006KT 25/22 A2985 RMK A01 T02460219  RH  084%=      5-min Rain = 0
KMD1 211050Z 16004KT 25/22 A2985 RMK A01 T02470219  RH  084%=      5-min Rain = 0
KMD1 211051Z 16005KT 25/22 A2985 RMK A01 T02470219  RH  085%=      5-min Rain = 0
KMD1 211052Z 16006KT 25/22 A2985 RMK A01 T02460219  RH  085%=      5-min Rain = 0
KMD1 211053Z 16005KT 25/22 A2985 RMK A01 T02460219  RH  085%=      5-min Rain = 0
KMD1 211054Z 16006KT 25/22 A2985 RMK A01 T02460219  RH  085%=      5-min Rain = 0
KMD1 211055Z 16006KT 25/22 A2985 RMK A01 T02450219  RH  085%=      5-min Rain = 0
KMD1 211056Z 15006KT 25/22 A2985 RMK A01 T02450219  RH  085%=      5-min Rain = 0
KMD1 211057Z 15007KT 25/22 A2985 RMK A01 T02450219  RH  086%=      5-min Rain = 0
KMD1 211058Z 15005KT 25/22 A2986 RMK A01 T02450219  RH  085%=      5-min Rain = 0
KMD1 211059Z 15005KT 25/22 A2986 RMK A01 T02450219  RH  085%=      5-min Rain = 0
KMD1 211100Z 16005KT 25/22 A2986 RMK A01 T02450219  RH  086%=      5-min Rain = 0
KMD1 211101Z 16009KT 24/22 A2986 RMK A01 T02440219  RH  086%=      5-min Rain = 0
KMD1 211102Z 16008KT 24/22 A2986 RMK A01 T02430219  RH  086%=      5-min Rain = 0
KMD1 211103Z 15007KT 24/22 A2986 RMK A01 T02440218  RH  086%=      5-min Rain = 0
KMD1 211104Z 16005KT 24/22 A2986 RMK A01 T02440219  RH  086%=      5-min Rain = 0
KMD1 211105Z 16007KT 24/22 A2986 RMK A01 T02440218  RH  085%=      5-min Rain = 0
KMD1 211106Z 15010KT 24/22 A2986 RMK A01 T02440218  RH  085%=      5-min Rain = 0
KMD1 211107Z 15007KT 25/22 A2986 RMK A01 T02450218  RH  085%=      5-min Rain = 0
KMD1 211108Z 16007KT 25/22 A2986 RMK A01 T02450218  RH  085%=      5-min Rain = 0
KMD1 211109Z 16008KT 25/22 A2986 RMK A01 T02450218  RH  085%=      5-min Rain = 0
KMD1 211110Z 15007KT 25/22 A2986 RMK A01 T02450218  RH  085%=      5-min Rain = 0
KMD1 211111Z 16006KT 25/22 A2986 RMK A01 T02450218  RH  085%=      5-min Rain = 0
KMD1 211112Z 16006KT 25/22 A2986 RMK A01 T02450218  RH  085%=      5-min Rain = 0
KMD1 211113Z 15005KT 24/22 A2986 RMK A01 T02440218  RH  085%=      5-min Rain = 0
KMD1 211114Z 16007KT 24/22 A2986 RMK A01 T02430218  RH  086%=      5-min Rain = 0
KMD1 211115Z 16008KT 24/22 A2986 RMK A01 T02430219  RH  086%=      5-min Rain = 0
KMD1 211116Z 16007KT 24/22 A2986 RMK A01 T02430218  RH  086%=      5-min Rain = 0
KMD1 211117Z 16008KT 24/22 A2986 RMK A01 T02430218  RH  086%=      5-min Rain = 0
KMD1 211118Z 16006KT 24/22 A2986 RMK A01 T02430219  RH  086%=      5-min Rain = 0
KMD1 211119Z 16007KT 24/22 A2986 RMK A01 T02420218  RH  086%=      5-min Rain = 0
KMD1 211120Z 16006KT 24/22 A2986 RMK A01 T02420218  RH  087%=      5-min Rain = 0
KMD1 211121Z 17006KT 24/22 A2986 RMK A01 T02420219  RH  087%=      5-min Rain = 0
KMD1 211122Z 17009KT 24/22 A2986 RMK A01 T02410219  RH  087%=      5-min Rain = 0
KMD1 211123Z 16007KT 24/22 A2986 RMK A01 T02400219  RH  088%=      5-min Rain = 0
KMD1 211124Z 16007KT 24/22 A2986 RMK A01 T02410219  RH  088%=      5-min Rain = 0
KMD1 211125Z 16007KT 24/22 A2986 RMK A01 T02410219  RH  088%=      5-min Rain = 0
KMD1 211126Z 16004KT 24/22 A2986 RMK A01 T02400219  RH  088%=      5-min Rain = 0
KMD1 211127Z 16006KT 24/22 A2986 RMK A01 T02400219  RH  088%=      5-min Rain = 0
KMD1 211128Z 17009KT 24/22 A2986 RMK A01 T02390219  RH  089%=      5-min Rain = 0
KMD1 211129Z 17009KT 24/22 A2986 RMK A01 T02390219  RH  089%=      5-min Rain = 0
KMD1 211130Z 15006KT 24/22 A2986 RMK A01 T02400219  RH  088%=      5-min Rain = 0
KMD1 211131Z 17007KT 24/22 A2986 RMK A01 T02400219  RH  088%=      5-min Rain = 0
KMD1 211132Z 16006KT 24/22 A2986 RMK A01 T02400219  RH  088%=      5-min Rain = 0
KMD1 211133Z 16007KT 24/22 A2986 RMK A01 T02410219  RH  088%=      5-min Rain = 0
KMD1 211134Z 17007KT 24/22 A2986 RMK A01 T02410220  RH  088%=      5-min Rain = 0
KMD1 211135Z 16006KT 24/22 A2986 RMK A01 T02400220  RH  088%=      5-min Rain = 0
KMD1 211136Z 16007KT 24/22 A2986 RMK A01 T02400220  RH  088%=      5-min Rain = 0
KMD1 211137Z 17006KT 24/22 A2986 RMK A01 T02400220  RH  088%=      5-min Rain = 0
KMD1 211138Z 18007KT 24/22 A2986 RMK A01 T02400220  RH  088%=      5-min Rain = 0
KMD1 211139Z 16006KT 24/22 A2986 RMK A01 T02400220  RH  088%=      5-min Rain = 0
KMD1 211140Z 18008KT 24/22 A2987 RMK A01 T02400219  RH  088%=      5-min Rain = 0
KMD1 211141Z 17007KT 24/22 A2987 RMK A01 T02410220  RH  088%=      5-min Rain = 0
KMD1 211142Z 17007KT 24/22 A2987 RMK A01 T02410220  RH  088%=      5-min Rain = 0
KMD1 211143Z 17006KT 24/22 A2987 RMK A01 T02390220  RH  089%=      5-min Rain = 0
KMD1 211144Z 17007KT 24/22 A2987 RMK A01 T02390220  RH  089%=      5-min Rain = 0
KMD1 211145Z 17007KT 24/22 A2987 RMK A01 T02390220  RH  089%=      5-min Rain = 0
KMD1 211146Z 17007KT 24/22 A2987 RMK A01 T02390220  RH  089%=      5-min Rain = 0
KMD1 211147Z 17006KT 24/22 A2987 RMK A01 T02390220  RH  089%=      5-min Rain = 0
KMD1 211148Z 16006KT 24/22 A2987 RMK A01 T02380220  RH  089%=      5-min Rain = 0
KMD1 211149Z 17006KT 24/22 A2987 RMK A01 T02380220  RH  089%=      5-min Rain = 0
KMD1 211150Z 16007KT 24/22 A2987 RMK A01 T02380220  RH  089%=      5-min Rain = 0
KMD1 211151Z 17008KT 24/22 A2987 RMK A01 T02380220  RH  089%=      5-min Rain = 0
KMD1 211152Z 17008KT 24/22 A2987 RMK A01 T02380220  RH  089%=      5-min Rain = 0
KMD1 211153Z 17007KT 24/22 A2987 RMK A01 T02390220  RH  089%=      5-min Rain = 0
KMD1 211154Z 16006KT 24/22 A2987 RMK A01 T02390220  RH  089%=      5-min Rain = 0
KMD1 211155Z 17007KT 24/22 A2987 RMK A01 T02390220  RH  089%=      5-min Rain = 0
KMD1 211156Z 16005KT 24/22 A2987 RMK A01 T02390220  RH  089%=      5-min Rain = 0
KMD1 211157Z 16007KT 24/22 A2987 RMK A01 T02390220  RH  089%=      5-min Rain = 0
KMD1 211158Z 17007KT 24/22 A2987 RMK A01 T02390220  RH  089%=      5-min Rain = 0
KMD1 211159Z 16006KT 24/22 A2987 RMK A01 T02380220  RH  090%=      5-min Rain = 0
KMD1 211200Z 17004KT 24/22 A2987 RMK A01 T02380220  RH  090%=      5-min Rain = 0
KMD1 211201Z 18004KT 24/22 A2987 RMK A01 T02370220  RH  090%=      5-min Rain = 0
KMD1 211202Z 16005KT 24/22 A2987 RMK A01 T02360220  RH  090%=      5-min Rain = 0
KMD1 211203Z 17007KT 24/22 A2987 RMK A01 T02360220  RH  090%=      5-min Rain = 0
KMD1 211204Z 18004KT 24/22 A2987 RMK A01 T02370220  RH  090%=      5-min Rain = 0
KMD1 211205Z 16005KT 24/22 A2987 RMK A01 T02370220  RH  090%=      5-min Rain = 0
KMD1 211206Z 17007KT 24/22 A2987 RMK A01 T02370220  RH  090%=      5-min Rain = 0
KMD1 211207Z 17006KT 24/22 A2987 RMK A01 T02370220  RH  090%=      5-min Rain = 0
KMD1 211208Z 17005KT 24/22 A2987 RMK A01 T02380220  RH  090%=      5-min Rain = 0
KMD1 211209Z 17004KT 24/22 A2987 RMK A01 T02380220  RH  090%=      5-min Rain = 0
KMD1 211210Z 17004KT 24/22 A2987 RMK A01 T02380220  RH  090%=      5-min Rain = 0
KMD1 211211Z 16004KT 24/22 A2987 RMK A01 T02380220  RH  090%=      5-min Rain = 0
KMD1 211212Z 17004KT 24/22 A2987 RMK A01 T02380220  RH  090%=      5-min Rain = 0
KMD1 211213Z 17005KT 24/22 A2987 RMK A01 T02380219  RH  090%=      5-min Rain = 0
KMD1 211214Z 16004KT 24/22 A2987 RMK A01 T02380220  RH  089%=      5-min Rain = 0
KMD1 211215Z 16004KT 24/22 A2987 RMK A01 T02390220  RH  089%=      5-min Rain = 0
KMD1 211216Z 16005KT 24/22 A2987 RMK A01 T02390220  RH  089%=      5-min Rain = 0
KMD1 211217Z 15005KT 24/22 A2987 RMK A01 T02390220  RH  089%=      5-min Rain = 0
KMD1 211218Z 15005KT 24/22 A2987 RMK A01 T02390220  RH  089%=      5-min Rain = 0
KMD1 211219Z 16004KT 24/22 A2987 RMK A01 T02400220  RH  089%=      5-min Rain = 0
KMD1 211220Z 16005KT 24/22 A2987 RMK A01 T02400220  RH  089%=      5-min Rain = 0
KMD1 211221Z 17004KT 24/22 A2987 RMK A01 T02400220  RH  089%=      5-min Rain = 0
KMD1 211222Z 16004KT 24/22 A2987 RMK A01 T02410221  RH  089%=      5-min Rain = 0
KMD1 211223Z 17005KT 24/22 A2987 RMK A01 T02410221  RH  089%=      5-min Rain = 0
KMD1 211224Z 17005KT 24/22 A2987 RMK A01 T02410221  RH  089%=      5-min Rain = 0
KMD1 211225Z 17004KT 24/22 A2987 RMK A01 T02410221  RH  089%=      5-min Rain = 0
KMD1 211226Z 18004KT 24/22 A2987 RMK A01 T02410221  RH  089%=      5-min Rain = 0
KMD1 211227Z 17004KT 24/22 A2987 RMK A01 T02400221  RH  089%=      5-min Rain = 0
KMD1 211228Z 17004KT 24/22 A2987 RMK A01 T02410221  RH  089%=      5-min Rain = 0
KMD1 211229Z 17004KT 24/22 A2987 RMK A01 T02410221  RH  089%=      5-min Rain = 0
KMD1 211230Z 17005KT 24/22 A2987 RMK A01 T02410221  RH  089%=      5-min Rain = 0
KMD1 211231Z 17006KT 24/22 A2987 RMK A01 T02410221  RH  088%=      5-min Rain = 0
KMD1 211232Z 17006KT 24/22 A2987 RMK A01 T02420221  RH  088%=      5-min Rain = 0
KMD1 211233Z 17006KT 24/22 A2987 RMK A01 T02420221  RH  088%=      5-min Rain = 0
KMD1 211234Z 16006KT 24/22 A2987 RMK A01 T02430221  RH  088%=      5-min Rain = 0
KMD1 211235Z 17008KT 24/22 A2987 RMK A01 T02430221  RH  088%=      5-min Rain = 0
KMD1 211236Z 16008KT 24/22 A2987 RMK A01 T02430221  RH  088%=      5-min Rain = 0
KMD1 211237Z 17007KT 24/22 A2987 RMK A01 T02430221  RH  087%=      5-min Rain = 0
KMD1 211238Z 17006KT 24/22 A2987 RMK A01 T02430220  RH  087%=      5-min Rain = 0
KMD1 211239Z 16006KT 24/22 A2987 RMK A01 T02440221  RH  087%=      5-min Rain = 0
KMD1 211240Z 17006KT 24/22 A2987 RMK A01 T02440221  RH  087%=      5-min Rain = 0
KMD1 211241Z 18006KT 25/22 A2987 RMK A01 T02450222  RH  087%=      5-min Rain = 0
KMD1 211242Z 16006KT 24/22 A2987 RMK A01 T02440222  RH  087%=      5-min Rain = 0
KMD1 211243Z 17005KT 25/22 A2988 RMK A01 T02450223  RH  088%=      5-min Rain = 0
KMD1 211244Z 17005KT 25/22 A2988 RMK A01 T02450223  RH  088%=      5-min Rain = 0
KMD1 211245Z 17004KT 25/22 A2988 RMK A01 T02450223  RH  088%=      5-min Rain = 0
KMD1 211246Z 17006KT 25/22 A2988 RMK A01 T02450223  RH  088%=      5-min Rain = 0
KMD1 211247Z 17005KT 25/22 A2988 RMK A01 T02450223  RH  087%=      5-min Rain = 0
KMD1 211248Z 18006KT 25/22 A2988 RMK A01 T02450223  RH  087%=      5-min Rain = 0
KMD1 211249Z 18005KT 25/22 A2988 RMK A01 T02450222  RH  087%=      5-min Rain = 0
KMD1 211250Z 16006KT 25/22 A2988 RMK A01 T02450223  RH  087%=      5-min Rain = 0
KMD1 211251Z 16006KT 25/22 A2988 RMK A01 T02460223  RH  087%=      5-min Rain = 0
KMD1 211252Z 17005KT 25/22 A2988 RMK A01 T02460223  RH  087%=      5-min Rain = 0
KMD1 211253Z 19004KT 25/22 A2988 RMK A01 T02460223  RH  087%=      5-min Rain = 0
KMD1 211254Z 18005KT 25/22 A2988 RMK A01 T02460223  RH  087%=      5-min Rain = 0
KMD1 211255Z 17007KT 25/22 A2988 RMK A01 T02460222  RH  086%=      5-min Rain = 0
KMD1 211256Z 17006KT 25/22 A2988 RMK A01 T02460221  RH  086%=      5-min Rain = 0
KMD1 211257Z 17008KT 25/22 A2988 RMK A01 T02460222  RH  086%=      5-min Rain = 0
KMD1 211258Z 17005KT 25/22 A2988 RMK A01 T02460221  RH  086%=      5-min Rain = 0
KMD1 211259Z 16006KT 25/22 A2988 RMK A01 T02460222  RH  087%=      5-min Rain = 0
KMD1 211300Z 16006KT 25/22 A2988 RMK A01 T02450223  RH  087%=      5-min Rain = 0
KMD1 211301Z 16007KT 25/22 A2988 RMK A01 T02450223  RH  087%=      5-min Rain = 0
KMD1 211302Z 17007KT 25/22 A2988 RMK A01 T02450222  RH  087%=      5-min Rain = 0
KMD1 211303Z 17007KT 25/22 A2988 RMK A01 T02450221  RH  086%=      5-min Rain = 0
KMD1 211304Z 18007KT 25/22 A2988 RMK A01 T02460222  RH  086%=      5-min Rain = 0
KMD1 211305Z 17006KT 25/22 A2988 RMK A01 T02470223  RH  087%=      5-min Rain = 0
KMD1 211306Z 17007KT 25/22 A2988 RMK A01 T02470223  RH  087%=      5-min Rain = 0
KMD1 211307Z 17007KT 25/22 A2988 RMK A01 T02470223  RH  086%=      5-min Rain = 0
KMD1 211308Z 16006KT 25/22 A2988 RMK A01 T02480223  RH  086%=      5-min Rain = 0
KMD1 211309Z 18005KT 25/22 A2988 RMK A01 T02480223  RH  086%=      5-min Rain = 0
KMD1 211310Z 16005KT 25/22 A2988 RMK A01 T02480224  RH  087%=      5-min Rain = 0
KMD1 211311Z 17006KT 25/22 A2988 RMK A01 T02490224  RH  086%=      5-min Rain = 0
KMD1 211312Z 17005KT 25/22 A2988 RMK A01 T02490224  RH  086%=      5-min Rain = 0
KMD1 211313Z 18006KT 25/22 A2988 RMK A01 T02500223  RH  085%=      5-min Rain = 0
KMD1 211314Z 17005KT 25/22 A2988 RMK A01 T02500224  RH  085%=      5-min Rain = 0
KMD1 211315Z 18006KT 25/22 A2988 RMK A01 T02500224  RH  085%=      5-min Rain = 0
KMD1 211316Z 17006KT 25/22 A2988 RMK A01 T02500224  RH  085%=      5-min Rain = 0
KMD1 211317Z 17006KT 25/23 A2988 RMK A01 T02510225  RH  086%=      5-min Rain = 0
KMD1 211318Z 17006KT 25/22 A2988 RMK A01 T02510224  RH  085%=      5-min Rain = 0
KMD1 211319Z 17008KT 25/23 A2988 RMK A01 T02510225  RH  086%=      5-min Rain = 0
KMD1 211320Z 18008KT 25/22 A2989 RMK A01 T02510224  RH  085%=      5-min Rain = 0
KMD1 211321Z 17006KT 25/22 A2989 RMK A01 T02510224  RH  085%=      5-min Rain = 0
KMD1 211322Z 16005KT 25/22 A2988 RMK A01 T02510223  RH  085%=      5-min Rain = 0
KMD1 211323Z 17006KT 25/22 A2989 RMK A01 T02520224  RH  085%=      5-min Rain = 0
KMD1 211324Z 17007KT 25/23 A2989 RMK A01 T02520225  RH  085%=      5-min Rain = 0
KMD1 211325Z 17006KT 25/22 A2989 RMK A01 T02530222  RH  083%=      5-min Rain = 0
KMD1 211326Z 19006KT 25/23 A2989 RMK A01 T02520225  RH  085%=      5-min Rain = 0
KMD1 211327Z 17008KT 25/22 A2989 RMK A01 T02530224  RH  084%=      5-min Rain = 0
KMD1 211328Z 17009KT 25/22 A2989 RMK A01 T02530224  RH  084%=      5-min Rain = 0
KMD1 211329Z 17009KT 25/22 A2989 RMK A01 T02530224  RH  084%=      5-min Rain = 0
KMD1 211330Z 17008KT 25/22 A2989 RMK A01 T02530223  RH  084%=      5-min Rain = 0
KMD1 211331Z 17009KT 25/22 A2989 RMK A01 T02530222  RH  083%=      5-min Rain = 0
KMD1 211332Z 17010KT 25/22 A2989 RMK A01 T02530223  RH  084%=      5-min Rain = 0
KMD1 211333Z 19010KT 25/22 A2989 RMK A01 T02530223  RH  083%=      5-min Rain = 0
KMD1 211334Z 17009KT 25/22 A2989 RMK A01 T02530222  RH  083%=      5-min Rain = 0
KMD1 211335Z 17009KT 25/22 A2989 RMK A01 T02540223  RH  083%=      5-min Rain = 0
KMD1 211336Z 19007KT 25/23 A2989 RMK A01 T02540225  RH  084%=      5-min Rain = 0
KMD1 211337Z 18006KT 26/23 A2989 RMK A01 T02550225  RH  084%=      5-min Rain = 0
KMD1 211338Z 17007KT 26/22 A2989 RMK A01 T02560224  RH  082%=      5-min Rain = 0
KMD1 211339Z 17008KT 26/23 A2989 RMK A01 T02560225  RH  083%=      5-min Rain = 0
KMD1 211340Z 17009KT 26/22 A2989 RMK A01 T02560223  RH  082%=      5-min Rain = 0
KMD1 211341Z 16008KT 26/22 A2989 RMK A01 T02560223  RH  082%=      5-min Rain = 0
KMD1 211342Z 16008KT 26/22 A2989 RMK A01 T02560223  RH  082%=      5-min Rain = 0
KMD1 211343Z 18006KT 26/22 A2989 RMK A01 T02560224  RH  083%=      5-min Rain = 0
KMD1 211344Z 18007KT 26/22 A2989 RMK A01 T02570224  RH  082%=      5-min Rain = 0
KMD1 211345Z 17009KT 26/23 A2989 RMK A01 T02570225  RH  082%=      5-min Rain = 0
KMD1 211346Z 18009KT 26/23 A2989 RMK A01 T02580225  RH  082%=      5-min Rain = 0
KMD1 211347Z 17007KT 26/22 A2989 RMK A01 T02580224  RH  082%=      5-min Rain = 0
KMD1 211348Z 18008KT 26/23 A2989 RMK A01 T02580225  RH  082%=      5-min Rain = 0
KMD1 211349Z 19007KT 26/23 A2989 RMK A01 T02580226  RH  083%=      5-min Rain = 0
KMD1 211350Z 18010KT 26/22 A2989 RMK A01 T02590223  RH  081%=      5-min Rain = 0
KMD1 211351Z 18010KT 26/22 A2989 RMK A01 T02580222  RH  080%=      5-min Rain = 0
KMD1 211352Z 18011KT 26/22 A2989 RMK A01 T02590223  RH  081%=      5-min Rain = 0
KMD1 211353Z 18011KT 26/22 A2989 RMK A01 T02580222  RH  080%=      5-min Rain = 0
KMD1 211354Z 17012KT 26/22 A2989 RMK A01 T02580222  RH  080%=      5-min Rain = 0
KMD1 211355Z 19010KT 26/22 A2989 RMK A01 T02590222  RH  080%=      5-min Rain = 0
KMD1 211356Z 17011KT 26/22 A2989 RMK A01 T02590224  RH  081%=      5-min Rain = 0
KMD1 211357Z 17012KT 26/22 A2989 RMK A01 T02580222  RH  080%=      5-min Rain = 0
KMD1 211358Z 18009KT 26/22 A2989 RMK A01 T02580222  RH  080%=      5-min Rain = 0
KMD1 211359Z 17008KT 26/22 A2989 RMK A01 T02590224  RH  081%=      5-min Rain = 0
KMD1 211400Z 18009KT 26/22 A2989 RMK A01 T02590224  RH  081%=      5-min Rain = 0
KMD1 211401Z 19007KT 26/22 A2989 RMK A01 T02600222  RH  080%=      5-min Rain = 0
KMD1 211402Z 20007KT 26/22 A2989 RMK A01 T02600224  RH  080%=      5-min Rain = 0
KMD1 211403Z 20011KT 26/22 A2989 RMK A01 T02610223  RH  080%=      5-min Rain = 0
KMD1 211404Z 20009KT 26/22 A2989 RMK A01 T02610222  RH  079%=      5-min Rain = 0
KMD1 211405Z 19009KT 26/22 A2989 RMK A01 T02610221  RH  079%=      5-min Rain = 0
KMD1 211406Z 19007KT 26/22 A2989 RMK A01 T02610223  RH  080%=      5-min Rain = 0
KMD1 211407Z 20008KT 26/22 A2989 RMK A01 T02610224  RH  080%=      5-min Rain = 0
KMD1 211408Z 19008KT 26/22 A2989 RMK A01 T02620223  RH  079%=      5-min Rain = 0
KMD1 211409Z 19009KT 26/22 A2989 RMK A01 T02620223  RH  079%=      5-min Rain = 0
KMD1 211410Z 19012KT 26/22 A2989 RMK A01 T02630222  RH  078%=      5-min Rain = 0
KMD1 211411Z 18011KT 26/22 A2989 RMK A01 T02630222  RH  078%=      5-min Rain = 0
KMD1 211412Z 18011KT 26/22 A2989 RMK A01 T02630221  RH  078%=      5-min Rain = 0
KMD1 211413Z 18012KT 26/22 A2989 RMK A01 T02630222  RH  078%=      5-min Rain = 0
KMD1 211414Z 18013KT 26/22 A2989 RMK A01 T02630222  RH  078%=      5-min Rain = 0
KMD1 211415Z 19011KT 26/22 A2989 RMK A01 T02630221  RH  078%=      5-min Rain = 0
KMD1 211416Z 19011KT 26/22 A2989 RMK A01 T02630222  RH  078%=      5-min Rain = 0
KMD1 211417Z 19009KT 26/22 A2989 RMK A01 T02630222  RH  078%=      5-min Rain = 0
KMD1 211418Z 19008KT 26/22 A2989 RMK A01 T02640224  RH  079%=      5-min Rain = 0
KMD1 211419Z 19009KT 26/22 A2989 RMK A01 T02640224  RH  079%=      5-min Rain = 0
KMD1 211420Z 18009KT 27/23 A2989 RMK A01 T02650225  RH  079%=      5-min Rain = 0
KMD1 211421Z 19009KT 27/22 A2989 RMK A01 T02650222  RH  077%=      5-min Rain = 0
KMD1 211422Z 20008KT 27/23 A2989 RMK A01 T02650226  RH  079%=      5-min Rain = 0
KMD1 211423Z 19009KT 27/23 A2989 RMK A01 T02650225  RH  078%=      5-min Rain = 0
KMD1 211424Z 20009KT 27/22 A2989 RMK A01 T02660223  RH  078%=      5-min Rain = 0
KMD1 211425Z 20011KT 27/22 A2989 RMK A01 T02660223  RH  077%=      5-min Rain = 0
KMD1 211426Z 19010KT 27/22 A2989 RMK A01 T02660223  RH  077%=      5-min Rain = 0
KMD1 211427Z 18010KT 27/23 A2989 RMK A01 T02660226  RH  078%=      5-min Rain = 0
KMD1 211428Z 18010KT 27/22 A2989 RMK A01 T02660223  RH  077%=      5-min Rain = 0
KMD1 211429Z 18009KT 27/22 A2989 RMK A01 T02660224  RH  078%=      5-min Rain = 0
KMD1 211430Z 19009KT 27/23 A2989 RMK A01 T02660225  RH  078%=      5-min Rain = 0
KMD1 211431Z 17009KT 27/23 A2989 RMK A01 T02670226  RH  078%=      5-min Rain = 0
KMD1 211432Z 17009KT 27/23 A2989 RMK A01 T02680226  RH  078%=      5-min Rain = 0
KMD1 211433Z 19011KT 27/23 A2989 RMK A01 T02680225  RH  077%=      5-min Rain = 0
KMD1 211434Z 20010KT 27/23 A299 RMK A01 T02680225  RH  077%=      5-min Rain = 0
KMD1 211435Z 19011KT 27/23 A2989 RMK A01 T02680225  RH  077%=      5-min Rain = 0
KMD1 211436Z 19010KT 27/22 A299 RMK A01 T02680224  RH  077%=      5-min Rain = 0
KMD1 211437Z 20010KT 27/22 A299 RMK A01 T02680224  RH  077%=      5-min Rain = 0
KMD1 211438Z 19011KT 27/22 A299 RMK A01 T02680223  RH  076%=      5-min Rain = 0
KMD1 211439Z 18013KT 27/22 A2989 RMK A01 T02680222  RH  076%=      5-min Rain = 0
KMD1 211440Z 19009KT 27/22 A2989 RMK A01 T02680224  RH  077%=      5-min Rain = 0
KMD1 211441Z 19008KT 27/23 A299 RMK A01 T02680226  RH  078%=      5-min Rain = 0
KMD1 211442Z 20009KT 27/23 A299 RMK A01 T02690226  RH  078%=      5-min Rain = 0
KMD1 211443Z 19010KT 27/22 A299 RMK A01 T02700224  RH  076%=      5-min Rain = 0
KMD1 211444Z 20011KT 27/22 A2989 RMK A01 T02700222  RH  075%=      5-min Rain = 0
KMD1 211445Z 19013KT 27/22 A299 RMK A01 T02690223  RH  076%=      5-min Rain = 0
KMD1 211446Z 19011KT 27/22 A299 RMK A01 T02690224  RH  076%=      5-min Rain = 0
KMD1 211447Z 19012KT 27/22 A2989 RMK A01 T02690222  RH  076%=      5-min Rain = 0
KMD1 211448Z 19012KT 27/22 A2989 RMK A01 T02690221  RH  075%=      5-min Rain = 0
KMD1 211449Z 19012KT 27/22 A2989 RMK A01 T02690223  RH  076%=      5-min Rain = 0
KMD1 211450Z 19013KT 27/22 A2989 RMK A01 T02690223  RH  076%=      5-min Rain = 0
KMD1 211451Z 18011KT 27/22 A2989 RMK A01 T02690224  RH  076%=      5-min Rain = 0
KMD1 211452Z 18012KT 27/22 A2989 RMK A01 T02700223  RH  076%=      5-min Rain = 0
KMD1 211453Z 19010KT 27/22 A2989 RMK A01 T02690223  RH  076%=      5-min Rain = 0
KMD1 211454Z 20011KT 27/23 A2989 RMK A01 T02700225  RH  076%=      5-min Rain = 0
KMD1 211455Z 20012KT 27/22 A2989 RMK A01 T02700222  RH  075%=      5-min Rain = 0
KMD1 211456Z 19011KT 27/22 A2989 RMK A01 T02700224  RH  076%=      5-min Rain = 0
KMD1 211457Z 20009KT 27/22 A2989 RMK A01 T02700223  RH  075%=      5-min Rain = 0
KMD1 211458Z 20008KT 27/23 A2989 RMK A01 T02710226  RH  076%=      5-min Rain = 0
KMD1 211459Z 20010KT 27/23 A2989 RMK A01 T02730226  RH  076%=      5-min Rain = 0
KMD1 211500Z 19010KT 27/22 A2989 RMK A01 T02730223  RH  074%=      5-min Rain = 0
KMD1 211501Z 20011KT 27/23 A2989 RMK A01 T02740227  RH  075%=      5-min Rain = 0
KMD1 211502Z 20013KT 27/22 A2989 RMK A01 T02740223  RH  074%=      5-min Rain = 0
KMD1 211503Z 20011KT 27/23 A2989 RMK A01 T02740225  RH  075%=      5-min Rain = 0
KMD1 211504Z 19008KT 27/23 A2989 RMK A01 T02740227  RH  075%=      5-min Rain = 0
KMD1 211505Z 20010G15KT 27/23 A2989 RMK A01 T02740226  RH  075%=      5-min Rain = 0
KMD1 211506Z 19011KT 28/22 A2989 RMK A01 T02750224  RH  074%=      5-min Rain = 0
KMD1 211507Z 19010KT 28/23 A2989 RMK A01 T02750226  RH  075%=      5-min Rain = 0
KMD1 211508Z 20010KT 28/23 A2989 RMK A01 T02750225  RH  074%=      5-min Rain = 0
KMD1 211509Z 18011KT 28/23 A2989 RMK A01 T02750227  RH  075%=      5-min Rain = 0
KMD1 211510Z 18010KT 28/23 A2989 RMK A01 T02750227  RH  075%=      5-min Rain = 0
KMD1 211511Z 19008KT 28/23 A2989 RMK A01 T02750227  RH  075%=      5-min Rain = 0
KMD1 211512Z 19014KT 28/23 A2989 RMK A01 T02760225  RH  074%=      5-min Rain = 0
KMD1 211513Z 19010KT 28/22 A2989 RMK A01 T02760224  RH  073%=      5-min Rain = 0
KMD1 211514Z 19009KT 28/22 A2989 RMK A01 T02760224  RH  073%=      5-min Rain = 0
KMD1 211515Z 19011KT 28/23 A2989 RMK A01 T02760225  RH  074%=      5-min Rain = 0
KMD1 211516Z 18014KT 28/22 A2989 RMK A01 T02770223  RH  072%=      5-min Rain = 0
KMD1 211517Z 19013KT 28/23 A2989 RMK A01 T02770225  RH  073%=      5-min Rain = 0
KMD1 211518Z 18012KT 28/22 A2989 RMK A01 T02780224  RH  072%=      5-min Rain = 0
KMD1 211519Z 18012KT 28/23 A2989 RMK A01 T02780226  RH  073%=      5-min Rain = 0
KMD1 211520Z 19008G13KT 28/23 A2989 RMK A01 T02780229  RH  075%=      5-min Rain = 0
KMD1 211521Z 17011KT 28/23 A2989 RMK A01 T02790229  RH  074%=      5-min Rain = 0
KMD1 211522Z 19010G16KT 28/23 A2989 RMK A01 T02800228  RH  073%=      5-min Rain = 0
KMD1 211523Z 19014KT 28/23 A2989 RMK A01 T02810225  RH  072%=      5-min Rain = 0
KMD1 211524Z 19012KT 28/22 A2989 RMK A01 T02800222  RH  071%=      5-min Rain = 0
KMD1 211525Z 19010KT 28/23 A2989 RMK A01 T02790225  RH  072%=      5-min Rain = 0
KMD1 211526Z 19010KT 28/23 A2989 RMK A01 T02790226  RH  073%=      5-min Rain = 0
KMD1 211527Z 20012KT 28/22 A2989 RMK A01 T02800223  RH  071%=      5-min Rain = 0
KMD1 211528Z 18009KT 28/23 A2989 RMK A01 T02810227  RH  073%=      5-min Rain = 0
KMD1 211529Z 18009KT 28/23 A2989 RMK A01 T02820229  RH  073%=      5-min Rain = 0
KMD1 211530Z 18009KT 28/23 A2989 RMK A01 T02830228  RH  072%=      5-min Rain = 0
KMD1 211531Z 17011KT 28/23 A2989 RMK A01 T02830229  RH  072%=      5-min Rain = 0
KMD1 211532Z 18010KT 28/23 A2989 RMK A01 T02830228  RH  072%=      5-min Rain = 0
KMD1 211533Z 17008KT 28/23 A2989 RMK A01 T02830231  RH  074%=      5-min Rain = 0
KMD1 211534Z 18009KT 28/23 A2989 RMK A01 T02830229  RH  073%=      5-min Rain = 0
KMD1 211535Z 17009KT 28/23 A2989 RMK A01 T02840230  RH  073%=      5-min Rain = 0
KMD1 211536Z 17011KT 28/23 A2989 RMK A01 T02840229  RH  072%=      5-min Rain = 0
KMD1 211537Z 17011KT 28/23 A2989 RMK A01 T02840231  RH  073%=      5-min Rain = 0
KMD1 211538Z 17010KT 28/23 A2989 RMK A01 T02830231  RH  073%=      5-min Rain = 0
KMD1 211539Z 16012KT 28/23 A2989 RMK A01 T02830228  RH  072%=      5-min Rain = 0
KMD1 211540Z 16010KT 28/23 A2989 RMK A01 T02830229  RH  072%=      5-min Rain = 0
KMD1 211541Z 17012KT 28/23 A2989 RMK A01 T02820229  RH  073%=      5-min Rain = 0
KMD1 211542Z 18009KT 28/23 A2989 RMK A01 T02830231  RH  073%=      5-min Rain = 0
KMD1 211543Z 19010KT 28/23 A2989 RMK A01 T02840230  RH  072%=      5-min Rain = 0
KMD1 211544Z 18011KT 28/23 A2989 RMK A01 T02840228  RH  071%=      5-min Rain = 0
KMD1 211545Z 18015KT 28/23 A2989 RMK A01 T02840228  RH  072%=      5-min Rain = 0
KMD1 211546Z 19011KT 28/23 A299 RMK A01 T02840225  RH  070%=      5-min Rain = 0
KMD1 211547Z 19009KT 28/23 A299 RMK A01 T02840227  RH  071%=      5-min Rain = 0
KMD1 211548Z 19011KT 28/23 A299 RMK A01 T02840231  RH  073%=      5-min Rain = 0
KMD1 211549Z 19011KT 29/23 A299 RMK A01 T02860228  RH  071%=      5-min Rain = 0
KMD1 211550Z 19009KT 29/23 A299 RMK A01 T02860229  RH  071%=      5-min Rain = 0
KMD1 211551Z 18008KT 29/23 A299 RMK A01 T02860230  RH  072%=      5-min Rain = 0
KMD1 211552Z 17010KT 29/23 A299 RMK A01 T02860229  RH  071%=      5-min Rain = 0
KMD1 211553Z 19010KT 29/23 A299 RMK A01 T02860229  RH  072%=      5-min Rain = 0
KMD1 211554Z 19011KT 29/23 A299 RMK A01 T02860229  RH  071%=      5-min Rain = 0
KMD1 211555Z 19010KT 29/23 A299 RMK A01 T02860229  RH  071%=      5-min Rain = 0
KMD1 211556Z 18013KT 29/23 A299 RMK A01 T02860229  RH  071%=      5-min Rain = 0
KMD1 211557Z 17012KT 29/23 A299 RMK A01 T02860229  RH  071%=      5-min Rain = 0
KMD1 211558Z 17012KT 29/23 A299 RMK A01 T02860231  RH  072%=      5-min Rain = 0
KMD1 211559Z 17010KT 29/23 A299 RMK A01 T02860227  RH  070%=      5-min Rain = 0
KMD1 211600Z 18010KT 29/23 A299 RMK A01 T02860232  RH  073%=      5-min Rain = 0
KMD1 211601Z 17011KT 29/23 A299 RMK A01 T02870232  RH  072%=      5-min Rain = 0
KMD1 211602Z 18010KT 29/23 A299 RMK A01 T02880232  RH  072%=      5-min Rain = 0
KMD1 211603Z 19010KT 29/23 A299 RMK A01 T02890231  RH  071%=      5-min Rain = 0
KMD1 211604Z 20011KT 29/23 A299 RMK A01 T02890230  RH  070%=      5-min Rain = 0
KMD1 211605Z 20010KT 29/23 A299 RMK A01 T02890227  RH  069%=      5-min Rain = 0
KMD1 211606Z 19007KT 29/23 A299 RMK A01 T02880231  RH  071%=      5-min Rain = 0
KMD1 211607Z 19008KT 29/23 A299 RMK A01 T02890234  RH  072%=      5-min Rain = 0
KMD1 211608Z 21011KT 29/23 A299 RMK A01 T02910230  RH  070%=      5-min Rain = 0
KMD1 211609Z 21008KT 29/23 A299 RMK A01 T02910227  RH  068%=      5-min Rain = 0
KMD1 211610Z 20010KT 29/23 A2989 RMK A01 T02910231  RH  070%=      5-min Rain = 0
KMD1 211611Z 20011KT 29/23 A299 RMK A01 T02910226  RH  068%=      5-min Rain = 0
KMD1 211612Z 21008G13KT 29/23 A2989 RMK A01 T02910229  RH  069%=      5-min Rain = 0
KMD1 211613Z 19012KT 29/23 A299 RMK A01 T02910229  RH  069%=      5-min Rain = 0
KMD1 211614Z 19013KT 29/23 A299 RMK A01 T02920230  RH  069%=      5-min Rain = 0
KMD1 211615Z 18009KT 29/23 A299 RMK A01 T02910232  RH  070%=      5-min Rain = 0
KMD1 211616Z 18013KT 29/23 A299 RMK A01 T02910231  RH  070%=      5-min Rain = 0
KMD1 211617Z 19011G16KT 29/23 A299 RMK A01 T02910227  RH  068%=      5-min Rain = 0
KMD1 211618Z 19014KT 29/23 A299 RMK A01 T02910227  RH  068%=      5-min Rain = 0
KMD1 211619Z 18013KT 29/23 A299 RMK A01 T02910227  RH  068%=      5-min Rain = 0
KMD1 211620Z 19011KT 29/23 A299 RMK A01 T02910225  RH  068%=      5-min Rain = 0
KMD1 211621Z 18010KT 29/23 A299 RMK A01 T02910228  RH  069%=      5-min Rain = 0
KMD1 211622Z 21010KT 29/23 A299 RMK A01 T02910232  RH  071%=      5-min Rain = 0
KMD1 211623Z 20012KT 29/23 A299 RMK A01 T02920228  RH  069%=      5-min Rain = 0
KMD1 211624Z 19012KT 29/23 A299 RMK A01 T02930227  RH  068%=      5-min Rain = 0
KMD1 211625Z 19011KT 29/23 A299 RMK A01 T02920229  RH  069%=      5-min Rain = 0
KMD1 211626Z 19012KT 29/23 A299 RMK A01 T02920230  RH  069%=      5-min Rain = 0
KMD1 211627Z 20011KT 29/23 A299 RMK A01 T02930225  RH  067%=      5-min Rain = 0
KMD1 211628Z 20011KT 29/23 A299 RMK A01 T02930226  RH  067%=      5-min Rain = 0
KMD1 211629Z 20010KT 29/23 A299 RMK A01 T02940226  RH  067%=      5-min Rain = 0
KMD1 211630Z 18008KT 29/23 A299 RMK A01 T02940232  RH  069%=      5-min Rain = 0
KMD1 211631Z 18011KT 30/24 A299 RMK A01 T02950235  RH  070%=      5-min Rain = 0
KMD1 211632Z 18011KT 30/23 A299 RMK A01 T02950230  RH  068%=      5-min Rain = 0
KMD1 211633Z 19010KT 30/23 A299 RMK A01 T02950228  RH  067%=      5-min Rain = 0
KMD1 211634Z 19011KT 30/23 A299 RMK A01 T02950231  RH  069%=      5-min Rain = 0
KMD1 211635Z 18009KT 30/23 A299 RMK A01 T02950232  RH  069%=      5-min Rain = 0
KMD1 211636Z 17008KT 30/23 A299 RMK A01 T02960230  RH  068%=      5-min Rain = 0
KMD1 211637Z 17010KT 30/23 A299 RMK A01 T02950234  RH  069%=      5-min Rain = 0
KMD1 211638Z 18013KT 30/23 A2989 RMK A01 T02950231  RH  068%=      5-min Rain = 0
KMD1 211639Z 19011KT 30/23 A299 RMK A01 T02960233  RH  069%=      5-min Rain = 0
KMD1 211640Z 20009KT 30/23 A299 RMK A01 T02960232  RH  069%=      5-min Rain = 0
KMD1 211641Z 20010KT 30/23 A299 RMK A01 T02960230  RH  068%=      5-min Rain = 0
KMD1 211642Z 18009KT 30/23 A299 RMK A01 T02960233  RH  069%=      5-min Rain = 0
KMD1 211643Z 19010KT 30/23 A299 RMK A01 T02960232  RH  068%=      5-min Rain = 0
KMD1 211644Z 18013KT 30/23 A299 RMK A01 T02960230  RH  067%=      5-min Rain = 0
KMD1 211645Z 19012KT 30/23 A299 RMK A01 T02960230  RH  068%=      5-min Rain = 0
KMD1 211646Z 20010KT 30/23 A299 RMK A01 T02960228  RH  067%=      5-min Rain = 0
KMD1 211647Z 19011KT 30/23 A299 RMK A01 T02970229  RH  067%=      5-min Rain = 0
KMD1 211648Z 20011KT 30/23 A299 RMK A01 T02970230  RH  067%=      5-min Rain = 0
KMD1 211649Z 20010KT 30/24 A299 RMK A01 T02980236  RH  069%=      5-min Rain = 0
KMD1 211650Z 19012KT 30/23 A299 RMK A01 T02990232  RH  067%=      5-min Rain = 0
KMD1 211651Z 19013KT 30/23 A299 RMK A01 T02980230  RH  067%=      5-min Rain = 0
KMD1 211652Z 19012G17KT 30/23 A299 RMK A01 T02990233  RH  068%=      5-min Rain = 0
KMD1 211653Z 19014KT 30/23 A299 RMK A01 T02980230  RH  067%=      5-min Rain = 0
KMD1 211654Z 19014KT 30/23 A299 RMK A01 T02990228  RH  066%=      5-min Rain = 0
KMD1 211655Z 18013KT 30/23 A299 RMK A01 T02990229  RH  066%=      5-min Rain = 0
KMD1 211656Z 19012KT 30/23 A299 RMK A01 T02990228  RH  066%=      5-min Rain = 0
KMD1 211657Z 18009G14KT 30/23 A299 RMK A01 T02990233  RH  068%=      5-min Rain = 0
KMD1 211658Z 18010G16KT 30/24 A299 RMK A01 T03000235  RH  068%=      5-min Rain = 0
KMD1 211659Z 18013KT 30/23 A299 RMK A01 T03020230  RH  066%=      5-min Rain = 0
KMD1 211700Z 19013KT 30/23 A299 RMK A01 T03010233  RH  067%=      5-min Rain = 0
KMD1 211701Z 19012KT 30/23 A299 RMK A01 T03000229  RH  066%=      5-min Rain = 0
KMD1 211702Z 18008KT 30/23 A299 RMK A01 T02990230  RH  066%=      5-min Rain = 0
KMD1 211703Z 20009G14KT 30/23 A2989 RMK A01 T03000230  RH  066%=      5-min Rain = 0
KMD1 211704Z 19010KT 30/23 A2989 RMK A01 T03000230  RH  066%=      5-min Rain = 0
KMD1 211705Z 20011KT 30/23 A2989 RMK A01 T03010232  RH  067%=      5-min Rain = 0
KMD1 211706Z 19010KT 30/24 A2989 RMK A01 T03010235  RH  068%=      5-min Rain = 0
KMD1 211707Z 18009KT 30/24 A2989 RMK A01 T03010239  RH  069%=      5-min Rain = 0
KMD1 211708Z 19007KT 30/24 A2989 RMK A01 T03040240  RH  069%=      5-min Rain = 0
KMD1 211709Z 18007G12KT 31/24 A2989 RMK A01 T03070243  RH  069%=      5-min Rain = 0
KMD1 211710Z 17012KT 31/24 A2989 RMK A01 T03070239  RH  067%=      5-min Rain = 0
KMD1 211711Z 19009KT 31/24 A2989 RMK A01 T03070237  RH  066%=      5-min Rain = 0
KMD1 211712Z 20011KT 31/23 A2989 RMK A01 T03060234  RH  065%=      5-min Rain = 0
KMD1 211713Z 19010KT 31/23 A2989 RMK A01 T03060232  RH  065%=      5-min Rain = 0
KMD1 211714Z 18011KT 31/24 A2989 RMK A01 T03050237  RH  067%=      5-min Rain = 0
KMD1 211715Z 19009KT 31/23 A2989 RMK A01 T03050232  RH  065%=      5-min Rain = 0
KMD1 211716Z 19008KT 31/24 A2989 RMK A01 T03050238  RH  067%=      5-min Rain = 0
KMD1 211717Z 17008KT 31/24 A2989 RMK A01 T03060236  RH  066%=      5-min Rain = 0
KMD1 211718Z 18007KT 31/24 A2989 RMK A01 T03070243  RH  069%=      5-min Rain = 0
KMD1 211719Z 17013KT 31/24 A2989 RMK A01 T03080239  RH  067%=      5-min Rain = 0
KMD1 211720Z 18010KT 31/24 A2989 RMK A01 T03070235  RH  065%=      5-min Rain = 0
KMD1 211721Z 16008KT 31/24 A2989 RMK A01 T03060242  RH  069%=      5-min Rain = 0
KMD1 211722Z 16010G15KT 31/24 A2989 RMK A01 T03060241  RH  068%=      5-min Rain = 0
KMD1 211723Z 19010G15KT 31/24 A2989 RMK A01 T03080238  RH  067%=      5-min Rain = 0
KMD1 211724Z 19013KT 31/24 A2989 RMK A01 T03090235  RH  065%=      5-min Rain = 0
KMD1 211725Z 20013KT 31/24 A2989 RMK A01 T03090235  RH  065%=      5-min Rain = 0
KMD1 211726Z 18012KT 31/23 A2989 RMK A01 T03070233  RH  065%=      5-min Rain = 0
KMD1 211727Z 19012KT 31/23 A2989 RMK A01 T03070232  RH  064%=      5-min Rain = 0
KMD1 211728Z 18011KT 31/23 A2989 RMK A01 T03070228  RH  063%=      5-min Rain = 0
KMD1 211729Z 18009KT 31/23 A2989 RMK A01 T03070234  RH  065%=      5-min Rain = 0
KMD1 211730Z 20008KT 31/23 A2989 RMK A01 T03070234  RH  065%=      5-min Rain = 0
KMD1 211731Z 20010KT 31/24 A2989 RMK A01 T03090239  RH  067%=      5-min Rain = 0
KMD1 211732Z 19012KT 31/24 A2989 RMK A01 T03100235  RH  064%=      5-min Rain = 0
KMD1 211733Z 19010KT 31/24 A2989 RMK A01 T03090235  RH  064%=      5-min Rain = 0
KMD1 211734Z 18013KT 31/23 A2989 RMK A01 T03090232  RH  064%=      5-min Rain = 0
KMD1 211735Z 19011KT 31/23 A2989 RMK A01 T03080234  RH  064%=      5-min Rain = 0
KMD1 211736Z 19012KT 31/23 A2989 RMK A01 T03080233  RH  064%=      5-min Rain = 0
KMD1 211737Z 17012KT 31/23 A2989 RMK A01 T03080233  RH  064%=      5-min Rain = 0
KMD1 211738Z 15015KT 31/23 A2989 RMK A01 T03080233  RH  065%=      5-min Rain = 0
KMD1 211739Z 17014KT 31/23 A2989 RMK A01 T03080233  RH  064%=      5-min Rain = 0
KMD1 211740Z 19012KT 31/23 A2989 RMK A01 T03070234  RH  065%=      5-min Rain = 0
KMD1 211741Z 20012KT 31/23 A2989 RMK A01 T03080232  RH  064%=      5-min Rain = 0
KMD1 211742Z 19010KT 31/23 A2989 RMK A01 T03080231  RH  064%=      5-min Rain = 0
KMD1 211743Z 19009KT 31/24 A2989 RMK A01 T03080235  RH  065%=      5-min Rain = 0
KMD1 211744Z 20009KT 31/23 A2989 RMK A01 T03080234  RH  065%=      5-min Rain = 0
KMD1 211745Z 20011KT 31/24 A2989 RMK A01 T03100236  RH  065%=      5-min Rain = 0
KMD1 211746Z 18009KT 31/24 A2989 RMK A01 T03110236  RH  064%=      5-min Rain = 0
KMD1 211747Z 17010KT 31/24 A2988 RMK A01 T03110239  RH  065%=      5-min Rain = 0
KMD1 211748Z 17008KT 31/24 A2988 RMK A01 T03120239  RH  066%=      5-min Rain = 0
KMD1 211749Z 17011KT 31/24 A2989 RMK A01 T03130239  RH  065%=      5-min Rain = 0
KMD1 211750Z 18012KT 31/24 A2989 RMK A01 T03130239  RH  065%=      5-min Rain = 0
KMD1 211751Z 18009KT 31/24 A2989 RMK A01 T03130238  RH  064%=      5-min Rain = 0
KMD1 211752Z 18009KT 31/24 A2989 RMK A01 T03140238  RH  064%=      5-min Rain = 0
KMD1 211753Z 17011KT 31/24 A2988 RMK A01 T03140237  RH  064%=      5-min Rain = 0
KMD1 211754Z 17011KT 31/24 A2988 RMK A01 T03140242  RH  066%=      5-min Rain = 0
KMD1 211755Z 18011KT 31/24 A2988 RMK A01 T03130238  RH  064%=      5-min Rain = 0
KMD1 211756Z 19010KT 31/24 A2988 RMK A01 T03130236  RH  064%=      5-min Rain = 0
KMD1 211757Z 18010KT 31/24 A2988 RMK A01 T03130236  RH  064%=      5-min Rain = 0
KMD1 211758Z 17010KT 31/24 A2988 RMK A01 T03130242  RH  066%=      5-min Rain = 0
KMD1 211759Z 17011KT 31/24 A2988 RMK A01 T03140242  RH  066%=      5-min Rain = 0
KMD1 211800Z 17012KT 31/24 A2988 RMK A01 T03140238  RH  064%=      5-min Rain = 0
KMD1 211801Z 16012KT 31/24 A2988 RMK A01 T03140240  RH  065%=      5-min Rain = 0
KMD1 211802Z 18011KT 31/24 A2988 RMK A01 T03130235  RH  063%=      5-min Rain = 0
KMD1 211803Z 16011KT 31/24 A2988 RMK A01 T03120239  RH  065%=      5-min Rain = 0
KMD1 211804Z 18010KT 31/23 A2988 RMK A01 T03120234  RH  063%=      5-min Rain = 0
KMD1 211805Z 16013KT 31/24 A2988 RMK A01 T03120237  RH  064%=      5-min Rain = 0
KMD1 211806Z 16011KT 31/24 A2988 RMK A01 T03120236  RH  064%=      5-min Rain = 0
KMD1 211807Z 16009KT 31/24 A2988 RMK A01 T03120240  RH  065%=      5-min Rain = 0
KMD1 211808Z 16011KT 31/24 A2988 RMK A01 T03120242  RH  066%=      5-min Rain = 0
KMD1 211809Z 16014KT 31/24 A2988 RMK A01 T03130240  RH  065%=      5-min Rain = 0
KMD1 211810Z 15013KT 31/24 A2988 RMK A01 T03140238  RH  064%=      5-min Rain = 0
KMD1 211811Z 16012KT 31/24 A2988 RMK A01 T03130237  RH  064%=      5-min Rain = 0
KMD1 211812Z 16013KT 31/24 A2988 RMK A01 T03130238  RH  065%=      5-min Rain = 0
KMD1 211813Z 16010KT 31/24 A2988 RMK A01 T03120237  RH  064%=      5-min Rain = 0
KMD1 211814Z 16010KT 31/24 A2988 RMK A01 T03130241  RH  066%=      5-min Rain = 0
KMD1 211815Z 17012KT 31/24 A2988 RMK A01 T03140241  RH  065%=      5-min Rain = 0
KMD1 211816Z 16010KT 32/24 A2988 RMK A01 T03150244  RH  066%=      5-min Rain = 0
KMD1 211817Z 17012KT 32/24 A2988 RMK A01 T03150241  RH  065%=      5-min Rain = 0
KMD1 211818Z 18010KT 32/24 A2988 RMK A01 T03150240  RH  064%=      5-min Rain = 0
KMD1 211819Z 17010KT 32/24 A2988 RMK A01 T03160240  RH  064%=      5-min Rain = 0
KMD1 211820Z 16010KT 32/24 A2988 RMK A01 T03160240  RH  064%=      5-min Rain = 0
KMD1 211821Z 15008KT 32/25 A2988 RMK A01 T03160246  RH  066%=      5-min Rain = 0
KMD1 211822Z 15009KT 32/24 A2988 RMK A01 T03170241  RH  064%=      5-min Rain = 0
KMD1 211823Z 16010KT 32/24 A2988 RMK A01 T03180242  RH  064%=      5-min Rain = 0
KMD1 211824Z 19011KT 32/24 A2988 RMK A01 T03180241  RH  064%=      5-min Rain = 0
KMD1 211825Z 18009KT 32/24 A2988 RMK A01 T03180238  RH  063%=      5-min Rain = 0
KMD1 211826Z 19008KT 32/24 A2988 RMK A01 T03180240  RH  063%=      5-min Rain = 0
KMD1 211827Z 19012KT 32/24 A2988 RMK A01 T03190238  RH  063%=      5-min Rain = 0
KMD1 211828Z 18011KT 32/24 A2988 RMK A01 T03190238  RH  062%=      5-min Rain = 0
KMD1 211829Z 19009KT 32/24 A2988 RMK A01 T03180237  RH  062%=      5-min Rain = 0
KMD1 211830Z 17009KT 32/24 A2988 RMK A01 T03180242  RH  064%=      5-min Rain = 0
KMD1 211831Z 18011KT 32/24 A2988 RMK A01 T03180237  RH  062%=      5-min Rain = 0
KMD1 211832Z 17010KT 32/24 A2988 RMK A01 T03190240  RH  063%=      5-min Rain = 0
KMD1 211833Z 16014KT 32/24 A2988 RMK A01 T03190236  RH  062%=      5-min Rain = 0
KMD1 211834Z 17017KT 32/24 A2988 RMK A01 T03180236  RH  062%=      5-min Rain = 0
KMD1 211835Z 17013KT 32/24 A2988 RMK A01 T03170235  RH  062%=      5-min Rain = 0
KMD1 211836Z 18011KT 32/24 A2988 RMK A01 T03160238  RH  063%=      5-min Rain = 0
KMD1 211837Z 20012G18KT 32/23 A2988 RMK A01 T03170234  RH  061%=      5-min Rain = 0
KMD1 211838Z 18015KT 32/23 A2988 RMK A01 T03180233  RH  061%=      5-min Rain = 0
KMD1 211839Z 18011KT 32/23 A2988 RMK A01 T03190233  RH  061%=      5-min Rain = 0
KMD1 211840Z 17010KT 32/24 A2988 RMK A01 T03190237  RH  062%=      5-min Rain = 0
KMD1 211841Z 21007KT 32/24 A2988 RMK A01 T03200243  RH  064%=      5-min Rain = 0
KMD1 211842Z 19008KT 32/24 A2988 RMK A01 T03210235  RH  060%=      5-min Rain = 0
KMD1 211843Z 17007KT 32/24 A2988 RMK A01 T03220241  RH  062%=      5-min Rain = 0
KMD1 211844Z 17009G16KT 32/25 A2988 RMK A01 T03230247  RH  064%=      5-min Rain = 0
KMD1 211845Z 17013KT 32/24 A2988 RMK A01 T03230237  RH  061%=      5-min Rain = 0
KMD1 211846Z 16013KT 32/24 A2988 RMK A01 T03220236  RH  061%=      5-min Rain = 0
KMD1 211847Z 15010KT 32/24 A2988 RMK A01 T03210241  RH  063%=      5-min Rain = 0
KMD1 211848Z 15010KT 32/24 A2987 RMK A01 T03200243  RH  064%=      5-min Rain = 0
KMD1 211849Z 16007KT 32/24 A2987 RMK A01 T03190243  RH  064%=      5-min Rain = 0
KMD1 211850Z 14009G16KT 32/25 A2987 RMK A01 T03200250  RH  067%=      5-min Rain = 0
KMD1 211851Z 15015KT 32/24 A2987 RMK A01 T03210241  RH  063%=      5-min Rain = 0
KMD1 211852Z 16012KT 32/24 A2987 RMK A01 T03200238  RH  062%=      5-min Rain = 0
KMD1 211853Z 18011KT 32/24 A2987 RMK A01 T03200243  RH  064%=      5-min Rain = 0
KMD1 211854Z 16009KT 32/24 A2987 RMK A01 T03200241  RH  063%=      5-min Rain = 0
KMD1 211855Z 17011KT 32/24 A2987 RMK A01 T03200243  RH  064%=      5-min Rain = 0
KMD1 211856Z 17013KT 32/24 A2987 RMK A01 T03210244  RH  064%=      5-min Rain = 0
KMD1 211857Z 16012KT 32/24 A2987 RMK A01 T03200240  RH  062%=      5-min Rain = 0
KMD1 211858Z 17010KT 32/24 A2987 RMK A01 T03190240  RH  063%=      5-min Rain = 0
KMD1 211859Z 17010KT 32/25 A2987 RMK A01 T03190249  RH  066%=      5-min Rain = 0
KMD1 211900Z 18009KT 32/25 A2987 RMK A01 T03190246  RH  065%=      5-min Rain = 0
KMD1 211901Z 18009KT 32/25 A2987 RMK A01 T03210246  RH  065%=      5-min Rain = 0
KMD1 211902Z 17011KT 32/25 A2987 RMK A01 T03220247  RH  065%=      5-min Rain = 0
KMD1 211903Z 17014KT 32/24 A2987 RMK A01 T03230244  RH  063%=      5-min Rain = 0
KMD1 211904Z 17013KT 32/24 A2987 RMK A01 T03220244  RH  063%=      5-min Rain = 0
KMD1 211905Z 17014KT 32/24 A2987 RMK A01 T03210242  RH  063%=      5-min Rain = 0
KMD1 211906Z 17012KT 32/24 A2987 RMK A01 T03200242  RH  063%=      5-min Rain = 0
KMD1 211907Z 17008KT 32/24 A2987 RMK A01 T03200244  RH  065%=      5-min Rain = 0
KMD1 211908Z 15009KT 32/25 A2987 RMK A01 T03200247  RH  065%=      5-min Rain = 0
KMD1 211909Z 15008KT 32/25 A2987 RMK A01 T03220249  RH  065%=      5-min Rain = 0
KMD1 211910Z 17008KT 32/26 A2987 RMK A01 T03230255  RH  067%=      5-min Rain = 0
KMD1 211911Z 18011KT 33/25 A2987 RMK A01 T03250246  RH  063%=      5-min Rain = 0
KMD1 211912Z 19010KT 32/24 A2987 RMK A01 T03240240  RH  061%=      5-min Rain = 0
KMD1 211913Z 19009KT 32/24 A2987 RMK A01 T03230244  RH  063%=      5-min Rain = 0
KMD1 211914Z 16010KT 32/25 A2987 RMK A01 T03230249  RH  065%=      5-min Rain = 0
KMD1 211915Z 17007KT 32/25 A2987 RMK A01 T03230249  RH  065%=      5-min Rain = 0
KMD1 211916Z 16010KT 32/25 A2987 RMK A01 T03220247  RH  065%=      5-min Rain = 0
KMD1 211917Z 15013KT 32/25 A2987 RMK A01 T03220246  RH  064%=      5-min Rain = 0
KMD1 211918Z 16012KT 32/25 A2987 RMK A01 T03220247  RH  065%=      5-min Rain = 0
KMD1 211919Z 16013G18KT 32/25 A2987 RMK A01 T03220247  RH  065%=      5-min Rain = 0
KMD1 211920Z 16015KT 32/25 A2987 RMK A01 T03220247  RH  065%=      5-min Rain = 0
KMD1 211921Z 15013KT 32/25 A2987 RMK A01 T03210245  RH  064%=      5-min Rain = 0
KMD1 211922Z 14011KT 32/25 A2987 RMK A01 T03200247  RH  066%=      5-min Rain = 0
KMD1 211923Z 16009KT 32/25 A2987 RMK A01 T03190247  RH  066%=      5-min Rain = 0
KMD1 211924Z 16011KT 32/25 A2987 RMK A01 T03200248  RH  066%=      5-min Rain = 0
KMD1 211925Z 16010KT 32/25 A2987 RMK A01 T03210249  RH  066%=      5-min Rain = 0
KMD1 211926Z 15012KT 32/24 A2987 RMK A01 T03210243  RH  063%=      5-min Rain = 0
KMD1 211927Z 15013KT 32/25 A2987 RMK A01 T03210246  RH  064%=      5-min Rain = 0
KMD1 211928Z 15013KT 32/25 A2987 RMK A01 T03210245  RH  064%=      5-min Rain = 0
KMD1 211929Z 16012KT 32/24 A2987 RMK A01 T03210243  RH  063%=      5-min Rain = 0
KMD1 211930Z 16013KT 32/25 A2987 RMK A01 T03210246  RH  064%=      5-min Rain = 0
KMD1 211931Z 16013KT 32/25 A2987 RMK A01 T03210245  RH  064%=      5-min Rain = 0
KMD1 211932Z 16011KT 32/24 A2987 RMK A01 T03200244  RH  064%=      5-min Rain = 0
KMD1 211933Z 15010KT 32/25 A2987 RMK A01 T03190246  RH  065%=      5-min Rain = 0
KMD1 211934Z 14012KT 32/24 A2987 RMK A01 T03190244  RH  064%=      5-min Rain = 0
KMD1 211935Z 15013KT 32/25 A2987 RMK A01 T03200248  RH  066%=      5-min Rain = 0
KMD1 211936Z 16010KT 32/25 A2987 RMK A01 T03210250  RH  066%=      5-min Rain = 0
KMD1 211937Z 17011G16KT 32/25 A2987 RMK A01 T03210247  RH  065%=      5-min Rain = 0
KMD1 211938Z 15014KT 32/24 A2987 RMK A01 T03220244  RH  064%=      5-min Rain = 0
KMD1 211939Z 18014KT 32/24 A2987 RMK A01 T03210240  RH  062%=      5-min Rain = 0
KMD1 211940Z 17012KT 32/25 A2987 RMK A01 T03210246  RH  065%=      5-min Rain = 0
KMD1 211941Z 17012KT 32/25 A2987 RMK A01 T03220246  RH  064%=      5-min Rain = 0
KMD1 211942Z 18015KT 32/25 A2987 RMK A01 T03230245  RH  064%=      5-min Rain = 0
KMD1 211943Z 17015KT 32/24 A2987 RMK A01 T03230240  RH  062%=      5-min Rain = 0
KMD1 211944Z 16012KT 32/24 A2987 RMK A01 T03210241  RH  063%=      5-min Rain = 0
KMD1 211945Z 16010KT 32/24 A2986 RMK A01 T03210243  RH  064%=      5-min Rain = 0
KMD1 211946Z 17009KT 32/24 A2986 RMK A01 T03200241  RH  063%=      5-min Rain = 0
KMD1 211947Z 17009KT 32/24 A2986 RMK A01 T03210244  RH  064%=      5-min Rain = 0
KMD1 211948Z 16013G19KT 32/24 A2986 RMK A01 T03220244  RH  063%=      5-min Rain = 0
KMD1 211949Z 17015KT 32/24 A2986 RMK A01 T03220242  RH  063%=      5-min Rain = 0
KMD1 211950Z 16011KT 32/25 A2986 RMK A01 T03210246  RH  065%=      5-min Rain = 0
KMD1 211951Z 15014KT 32/24 A2986 RMK A01 T03210244  RH  064%=      5-min Rain = 0
KMD1 211952Z 15014KT 32/24 A2986 RMK A01 T03210243  RH  063%=      5-min Rain = 0
KMD1 211953Z 15014KT 32/24 A2986 RMK A01 T03210240  RH  062%=      5-min Rain = 0
KMD1 211954Z 15012G17KT 32/24 A2986 RMK A01 T03210244  RH  064%=      5-min Rain = 0
KMD1 211955Z 15013KT 32/24 A2986 RMK A01 T03210244  RH  064%=      5-min Rain = 0
KMD1 211956Z 15012KT 32/24 A2986 RMK A01 T03210243  RH  063%=      5-min Rain = 0
KMD1 211957Z 16010KT 32/25 A2986 RMK A01 T03210249  RH  066%=      5-min Rain = 0
KMD1 211958Z 16010KT 32/25 A2986 RMK A01 T03220250  RH  066%=      5-min Rain = 0
KMD1 211959Z 16012KT 32/25 A2986 RMK A01 T03240247  RH  064%=      5-min Rain = 0
KMD1 212000Z 14014G22KT 32/24 A2986 RMK A01 T03220243  RH  063%=      5-min Rain = 0
KMD1 212001Z 16018G23KT 32/24 A2986 RMK A01 T03200242  RH  064%=      5-min Rain = 0
KMD1 212002Z 16015KT 32/24 A2986 RMK A01 T03200243  RH  064%=      5-min Rain = 0
KMD1 212003Z 17015KT 32/24 A2986 RMK A01 T03200241  RH  063%=      5-min Rain = 0
KMD1 212004Z 16012KT 32/25 A2986 RMK A01 T03200245  RH  065%=      5-min Rain = 0
KMD1 212005Z 16012KT 32/24 A2986 RMK A01 T03210243  RH  064%=      5-min Rain = 0
KMD1 212006Z 16012KT 32/24 A2986 RMK A01 T03210242  RH  063%=      5-min Rain = 0
KMD1 212007Z 16011KT 32/24 A2986 RMK A01 T03210243  RH  063%=      5-min Rain = 0
KMD1 212008Z 17008KT 32/25 A2986 RMK A01 T03230250  RH  065%=      5-min Rain = 0
KMD1 212009Z 16010KT 32/25 A2986 RMK A01 T03240248  RH  064%=      5-min Rain = 0
KMD1 212010Z 16010KT 33/25 A2986 RMK A01 T03250249  RH  064%=      5-min Rain = 0
KMD1 212011Z 17014G19KT 33/25 A2986 RMK A01 T03250248  RH  064%=      5-min Rain = 0
KMD1 212012Z 17012KT 33/25 A2986 RMK A01 T03250246  RH  063%=      5-min Rain = 0
KMD1 212013Z 16009KT 32/25 A2986 RMK A01 T03230250  RH  065%=      5-min Rain = 0
KMD1 212014Z 15013KT 32/25 A2986 RMK A01 T03230248  RH  065%=      5-min Rain = 0
KMD1 212015Z 17011KT 32/25 A2986 RMK A01 T03220247  RH  064%=      5-min Rain = 0
KMD1 212016Z 19010KT 32/25 A2986 RMK A01 T03220245  RH  064%=      5-min Rain = 0
KMD1 212017Z 19013KT 32/24 A2986 RMK A01 T03230241  RH  062%=      5-min Rain = 0
KMD1 212018Z 18012KT 32/24 A2986 RMK A01 T03230239  RH  061%=      5-min Rain = 0
KMD1 212019Z 17012KT 32/24 A2986 RMK A01 T03230240  RH  062%=      5-min Rain = 0
KMD1 212020Z 18009KT 32/24 A2986 RMK A01 T03230238  RH  061%=      5-min Rain = 0
KMD1 212021Z 16010G16KT 32/24 A2986 RMK A01 T03230244  RH  063%=      5-min Rain = 0
KMD1 212022Z 16016KT 32/24 A2986 RMK A01 T03230242  RH  063%=      5-min Rain = 0
KMD1 212023Z 15014G19KT 32/25 A2985 RMK A01 T03230246  RH  064%=      5-min Rain = 0
KMD1 212024Z 15015G21KT 32/25 A2985 RMK A01 T03230247  RH  064%=      5-min Rain = 0
KMD1 212025Z 16016G22KT 32/24 A2986 RMK A01 T03220242  RH  063%=      5-min Rain = 0
KMD1 212026Z 16011KT 32/24 A2986 RMK A01 T03200243  RH  064%=      5-min Rain = 0
KMD1 212027Z 14010KT 32/25 A2985 RMK A01 T03190247  RH  066%=      5-min Rain = 0
KMD1 212028Z 14010KT 32/25 A2986 RMK A01 T03190251  RH  067%=      5-min Rain = 0
KMD1 212029Z 16011KT 32/25 A2986 RMK A01 T03200250  RH  066%=      5-min Rain = 0
KMD1 212030Z 18011KT 32/25 A2986 RMK A01 T03220249  RH  065%=      5-min Rain = 0
KMD1 212031Z 17015KT 33/24 A2986 RMK A01 T03250244  RH  063%=      5-min Rain = 0
KMD1 212032Z 17014KT 32/24 A2986 RMK A01 T03240244  RH  063%=      5-min Rain = 0
KMD1 212033Z 17012KT 32/25 A2986 RMK A01 T03230245  RH  063%=      5-min Rain = 0
KMD1 212034Z 17014KT 32/24 A2986 RMK A01 T03220243  RH  063%=      5-min Rain = 0
KMD1 212035Z 17010KT 32/24 A2986 RMK A01 T03210244  RH  064%=      5-min Rain = 0
KMD1 212036Z 15009KT 32/25 A2986 RMK A01 T03200246  RH  065%=      5-min Rain = 0
KMD1 212037Z 15008KT 32/25 A2985 RMK A01 T03200245  RH  065%=      5-min Rain = 0
KMD1 212038Z 16014G20KT 32/25 A2985 RMK A01 T03210246  RH  065%=      5-min Rain = 0
KMD1 212039Z 17016G21KT 32/24 A2985 RMK A01 T03210241  RH  062%=      5-min Rain = 0
KMD1 212040Z 16015KT 32/24 A2986 RMK A01 T03210244  RH  064%=      5-min Rain = 0
KMD1 212041Z 16013KT 32/24 A2986 RMK A01 T03200243  RH  064%=      5-min Rain = 0
KMD1 212042Z 16013KT 32/24 A2985 RMK A01 T03190244  RH  064%=      5-min Rain = 0
KMD1 212043Z 16015KT 32/24 A2985 RMK A01 T03190240  RH  063%=      5-min Rain = 0
KMD1 212044Z 16013KT 32/24 A2985 RMK A01 T03200239  RH  062%=      5-min Rain = 0
KMD1 212045Z 17011G16KT 32/25 A2985 RMK A01 T03200245  RH  064%=      5-min Rain = 0
KMD1 212046Z 16011G16KT 32/25 A2985 RMK A01 T03210246  RH  065%=      5-min Rain = 0
KMD1 212047Z 16011KT 32/25 A2985 RMK A01 T03210246  RH  065%=      5-min Rain = 0
KMD1 212048Z 17012KT 32/25 A2985 RMK A01 T03220246  RH  064%=      5-min Rain = 0
KMD1 212049Z 14013KT 32/24 A2985 RMK A01 T03210243  RH  063%=      5-min Rain = 0
KMD1 212050Z 15013G19KT 32/25 A2986 RMK A01 T03210245  RH  064%=      5-min Rain = 0
KMD1 212051Z 14015KT 32/24 A2985 RMK A01 T03200239  RH  062%=      5-min Rain = 0
KMD1 212052Z 15016KT 32/24 A2985 RMK A01 T03190239  RH  063%=      5-min Rain = 0
KMD1 212053Z 16017KT 32/24 A2985 RMK A01 T03190242  RH  064%=      5-min Rain = 0
KMD1 212054Z 16016KT 32/24 A2985 RMK A01 T03180240  RH  063%=      5-min Rain = 0
KMD1 212055Z 16011KT 32/24 A2985 RMK A01 T03180238  RH  063%=      5-min Rain = 0
KMD1 212056Z 16012KT 32/24 A2985 RMK A01 T03180242  RH  064%=      5-min Rain = 0
KMD1 212057Z 18011KT 32/24 A2985 RMK A01 T03190241  RH  064%=      5-min Rain = 0
KMD1 212058Z 18013KT 32/24 A2985 RMK A01 T03200240  RH  063%=      5-min Rain = 0
KMD1 212059Z 17014KT 32/24 A2985 RMK A01 T03210244  RH  064%=      5-min Rain = 0
KMD1 212100Z 17013KT 32/24 A2985 RMK A01 T03220242  RH  063%=      5-min Rain = 0
KMD1 212101Z 17012KT 32/25 A2985 RMK A01 T03220246  RH  064%=      5-min Rain = 0
KMD1 212102Z 16012KT 32/24 A2985 RMK A01 T03220243  RH  063%=      5-min Rain = 0
KMD1 212103Z 17013G18KT 32/24 A2985 RMK A01 T03210241  RH  063%=      5-min Rain = 0
KMD1 212104Z 17011KT 32/25 A2985 RMK A01 T03210245  RH  064%=      5-min Rain = 0
KMD1 212105Z 15011KT 32/25 A2985 RMK A01 T03210245  RH  064%=      5-min Rain = 0
KMD1 212106Z 16013KT 32/24 A2985 RMK A01 T03210243  RH  064%=      5-min Rain = 0
KMD1 212107Z 15014KT 32/24 A2985 RMK A01 T03210240  RH  062%=      5-min Rain = 0
KMD1 212108Z 15015KT 32/24 A2985 RMK A01 T03210239  RH  062%=      5-min Rain = 0
KMD1 212109Z 15014KT 32/24 A2985 RMK A01 T03200237  RH  061%=      5-min Rain = 0
KMD1 212110Z 15014KT 32/24 A2985 RMK A01 T03200240  RH  062%=      5-min Rain = 0
KMD1 212111Z 15012KT 32/24 A2985 RMK A01 T03200243  RH  064%=      5-min Rain = 0
KMD1 212112Z 17014KT 32/24 A2985 RMK A01 T03210241  RH  063%=      5-min Rain = 0
KMD1 212113Z 17012KT 32/24 A2985 RMK A01 T03220243  RH  063%=      5-min Rain = 0
KMD1 212114Z 16014KT 32/24 A2985 RMK A01 T03220240  RH  062%=      5-min Rain = 0
KMD1 212115Z 17010KT 32/24 A2985 RMK A01 T03220241  RH  063%=      5-min Rain = 0
KMD1 212116Z 17009KT 32/24 A2985 RMK A01 T03220242  RH  063%=      5-min Rain = 0
KMD1 212117Z 17011KT 32/25 A2985 RMK A01 T03220247  RH  065%=      5-min Rain = 0
KMD1 212118Z 18012KT 32/24 A2985 RMK A01 T03230242  RH  062%=      5-min Rain = 0
KMD1 212119Z 18011KT 32/24 A2985 RMK A01 T03230236  RH  060%=      5-min Rain = 0
KMD1 212120Z 18012KT 32/24 A2985 RMK A01 T03240243  RH  062%=      5-min Rain = 0
KMD1 212121Z 18013KT 32/24 A2985 RMK A01 T03240241  RH  062%=      5-min Rain = 0
KMD1 212122Z 19012KT 32/24 A2985 RMK A01 T03240237  RH  060%=      5-min Rain = 0
KMD1 212123Z 19011KT 32/24 A2984 RMK A01 T03230241  RH  062%=      5-min Rain = 0
KMD1 212124Z 17009KT 32/24 A2985 RMK A01 T03240243  RH  063%=      5-min Rain = 0
KMD1 212125Z 16013KT 32/24 A2984 RMK A01 T03240243  RH  062%=      5-min Rain = 0
KMD1 212126Z 15012G18KT 32/25 A2985 RMK A01 T03240246  RH  063%=      5-min Rain = 0
KMD1 212127Z 15013KT 32/24 A2984 RMK A01 T03230241  RH  062%=      5-min Rain = 0
KMD1 212128Z 15012KT 32/24 A2984 RMK A01 T03230244  RH  063%=      5-min Rain = 0
KMD1 212129Z 13013G19KT 32/24 A2984 RMK A01 T03220242  RH  063%=      5-min Rain = 0
KMD1 212130Z 14015KT 32/24 A2984 RMK A01 T03210239  RH  062%=      5-min Rain = 0
KMD1 212131Z 16014G20KT 32/24 A2984 RMK A01 T03200242  RH  063%=      5-min Rain = 0
KMD1 212132Z 16014KT 32/24 A2985 RMK A01 T03200238  RH  062%=      5-min Rain = 0
KMD1 212133Z 16014KT 32/24 A2984 RMK A01 T03200241  RH  063%=      5-min Rain = 0
KMD1 212134Z 15014KT 32/24 A2984 RMK A01 T03210237  RH  061%=      5-min Rain = 0
KMD1 212135Z 16012KT 32/24 A2984 RMK A01 T03210238  RH  062%=      5-min Rain = 0
KMD1 212136Z 17014KT 32/24 A2984 RMK A01 T03210237  RH  061%=      5-min Rain = 0
KMD1 212137Z 16014KT 32/24 A2984 RMK A01 T03200240  RH  062%=      5-min Rain = 0
KMD1 212138Z 15014KT 32/24 A2984 RMK A01 T03190240  RH  063%=      5-min Rain = 0
KMD1 212139Z 16013KT 32/24 A2984 RMK A01 T03200238  RH  062%=      5-min Rain = 0
KMD1 212140Z 17015KT 32/24 A2984 RMK A01 T03200239  RH  062%=      5-min Rain = 0
KMD1 212141Z 17018KT 32/24 A2984 RMK A01 T03210237  RH  061%=      5-min Rain = 0
KMD1 212142Z 16014KT 32/24 A2984 RMK A01 T03210237  RH  061%=      5-min Rain = 0
KMD1 212143Z 15012KT 32/24 A2984 RMK A01 T03200240  RH  063%=      5-min Rain = 0
KMD1 212144Z 16011KT 32/24 A2984 RMK A01 T03200242  RH  064%=      5-min Rain = 0
KMD1 212145Z 15012KT 32/24 A2984 RMK A01 T03210241  RH  063%=      5-min Rain = 0
KMD1 212146Z 15013KT 32/25 A2984 RMK A01 T03220246  RH  064%=      5-min Rain = 0
KMD1 212147Z 14014KT 32/24 A2984 RMK A01 T03220241  RH  063%=      5-min Rain = 0
KMD1 212148Z 14012KT 32/24 A2984 RMK A01 T03210243  RH  064%=      5-min Rain = 0
KMD1 212149Z 14013KT 32/24 A2984 RMK A01 T03190240  RH  063%=      5-min Rain = 0
KMD1 212150Z 14013KT 32/24 A2984 RMK A01 T03180239  RH  063%=      5-min Rain = 0
KMD1 212151Z 14011G17KT 32/24 A2984 RMK A01 T03190239  RH  063%=      5-min Rain = 0
KMD1 212152Z 14014KT 32/25 A2984 RMK A01 T03190246  RH  065%=      5-min Rain = 0
KMD1 212153Z 15011KT 32/24 A2984 RMK A01 T03200242  RH  063%=      5-min Rain = 0
KMD1 212154Z 15010KT 32/25 A2984 RMK A01 T03210245  RH  064%=      5-min Rain = 0
KMD1 212155Z 17013KT 32/24 A2984 RMK A01 T03230243  RH  063%=      5-min Rain = 0
KMD1 212156Z 16011KT 32/24 A2984 RMK A01 T03230240  RH  062%=      5-min Rain = 0
KMD1 212157Z 15011KT 32/24 A2984 RMK A01 T03230240  RH  062%=      5-min Rain = 0
KMD1 212158Z 14012G17KT 32/24 A2984 RMK A01 T03230242  RH  062%=      5-min Rain = 0
KMD1 212159Z 14015G20KT 32/24 A2984 RMK A01 T03230238  RH  061%=      5-min Rain = 0
KMD1 212200Z 14015KT 32/24 A2984 RMK A01 T03220237  RH  061%=      5-min Rain = 0
KMD1 212201Z 16012KT 32/24 A2984 RMK A01 T03210240  RH  062%=      5-min Rain = 0
KMD1 212202Z 16010G15KT 32/24 A2984 RMK A01 T03210242  RH  063%=      5-min Rain = 0
KMD1 212203Z 16012KT 32/24 A2984 RMK A01 T03220236  RH  061%=      5-min Rain = 0
KMD1 212204Z 16013KT 32/24 A2984 RMK A01 T03230240  RH  062%=      5-min Rain = 0
KMD1 212205Z 16013KT 32/24 A2984 RMK A01 T03230238  RH  061%=      5-min Rain = 0
KMD1 212206Z 16012KT 32/24 A2984 RMK A01 T03230241  RH  062%=      5-min Rain = 0
KMD1 212207Z 16012KT 32/24 A2984 RMK A01 T03230238  RH  061%=      5-min Rain = 0
KMD1 212208Z 16015KT 32/24 A2984 RMK A01 T03230236  RH  060%=      5-min Rain = 0
KMD1 212209Z 16011KT 32/24 A2983 RMK A01 T03210237  RH  061%=      5-min Rain = 0
KMD1 212210Z 16013KT 32/24 A2983 RMK A01 T03210237  RH  061%=      5-min Rain = 0
KMD1 212211Z 16013KT 32/23 A2983 RMK A01 T03210234  RH  060%=      5-min Rain = 0
KMD1 212212Z 16014KT 32/24 A2983 RMK A01 T03210235  RH  061%=      5-min Rain = 0
KMD1 212213Z 17012KT 32/24 A2983 RMK A01 T03210235  RH  061%=      5-min Rain = 0
KMD1 212214Z 17011KT 32/24 A2983 RMK A01 T03210240  RH  062%=      5-min Rain = 0
KMD1 212215Z 17009KT 32/24 A2983 RMK A01 T03220240  RH  062%=      5-min Rain = 0
KMD1 212216Z 17009KT 32/24 A2983 RMK A01 T03220241  RH  062%=      5-min Rain = 0
KMD1 212217Z 16010KT 32/24 A2983 RMK A01 T03230241  RH  062%=      5-min Rain = 0
KMD1 212218Z 14010KT 32/24 A2983 RMK A01 T03240243  RH  062%=      5-min Rain = 0
KMD1 212219Z 14013KT 32/24 A2983 RMK A01 T03240242  RH  062%=      5-min Rain = 0
KMD1 212220Z 16015KT 32/24 A2983 RMK A01 T03230241  RH  062%=      5-min Rain = 0
KMD1 212221Z 16016KT 32/24 A2983 RMK A01 T03220237  RH  061%=      5-min Rain = 0
KMD1 212222Z 17014KT 32/23 A2983 RMK A01 T03210233  RH  060%=      5-min Rain = 0
KMD1 212223Z 17014G19KT 32/24 A2983 RMK A01 T03210236  RH  061%=      5-min Rain = 0
KMD1 212224Z 16010KT 32/24 A2983 RMK A01 T03210240  RH  062%=      5-min Rain = 0
KMD1 212225Z 16012KT 32/24 A2983 RMK A01 T03200239  RH  062%=      5-min Rain = 0
KMD1 212226Z 16010KT 32/24 A2983 RMK A01 T03210238  RH  062%=      5-min Rain = 0
KMD1 212227Z 16012KT 32/24 A2983 RMK A01 T03210238  RH  062%=      5-min Rain = 0
KMD1 212228Z 16014KT 32/24 A2983 RMK A01 T03210236  RH  061%=      5-min Rain = 0
KMD1 212229Z 17012KT 32/23 A2983 RMK A01 T03200232  RH  060%=      5-min Rain = 0
KMD1 212230Z 18011KT 32/24 A2983 RMK A01 T03210236  RH  061%=      5-min Rain = 0
KMD1 212231Z 18010KT 32/24 A2983 RMK A01 T03210239  RH  062%=      5-min Rain = 0
KMD1 212232Z 17010KT 32/24 A2983 RMK A01 T03210237  RH  061%=      5-min Rain = 0
KMD1 212233Z 16009KT 32/24 A2983 RMK A01 T03220239  RH  062%=      5-min Rain = 0
KMD1 212234Z 15008KT 32/24 A2983 RMK A01 T03210243  RH  064%=      5-min Rain = 0
KMD1 212235Z 16010KT 32/24 A2983 RMK A01 T03220240  RH  062%=      5-min Rain = 0
KMD1 212236Z 17013KT 32/24 A2983 RMK A01 T03230238  RH  061%=      5-min Rain = 0
KMD1 212237Z 17010KT 32/24 A2983 RMK A01 T03220237  RH  061%=      5-min Rain = 0
KMD1 212238Z 16011KT 32/24 A2983 RMK A01 T03220240  RH  062%=      5-min Rain = 0
KMD1 212239Z 15015KT 32/24 A2982 RMK A01 T03220236  RH  061%=      5-min Rain = 0
KMD1 212240Z 15015KT 32/24 A2982 RMK A01 T03210235  RH  060%=      5-min Rain = 0
KMD1 212241Z 15013KT 32/24 A2982 RMK A01 T03200236  RH  061%=      5-min Rain = 0
KMD1 212242Z 15011KT 32/24 A2982 RMK A01 T03190240  RH  063%=      5-min Rain = 0
KMD1 212243Z 14013G19KT 32/24 A2982 RMK A01 T03190237  RH  062%=      5-min Rain = 0
KMD1 212244Z 14014KT 32/23 A2982 RMK A01 T03190233  RH  061%=      5-min Rain = 0
KMD1 212245Z 15013KT 32/23 A2982 RMK A01 T03180234  RH  061%=      5-min Rain = 0
KMD1 212246Z 16013KT 32/23 A2982 RMK A01 T03190232  RH  060%=      5-min Rain = 0
KMD1 212247Z 16016KT 32/23 A2982 RMK A01 T03190232  RH  060%=      5-min Rain = 0
KMD1 212248Z 16014KT 32/23 A2982 RMK A01 T03190230  RH  059%=      5-min Rain = 0
KMD1 212249Z 17012KT 32/23 A2982 RMK A01 T03190231  RH  059%=      5-min Rain = 0
KMD1 212250Z 17011KT 32/23 A2982 RMK A01 T03190234  RH  061%=      5-min Rain = 0
KMD1 212251Z 16011KT 32/23 A2982 RMK A01 T03190233  RH  060%=      5-min Rain = 0
KMD1 212252Z 17011KT 32/23 A2982 RMK A01 T03190232  RH  060%=      5-min Rain = 0
KMD1 212253Z 15009KT 32/23 A2982 RMK A01 T03190234  RH  061%=      5-min Rain = 0
KMD1 212254Z 15011KT 32/23 A2982 RMK A01 T03200233  RH  060%=      5-min Rain = 0
KMD1 212255Z 14015KT 32/23 A2982 RMK A01 T03200229  RH  059%=      5-min Rain = 0
KMD1 212256Z 17012KT 32/23 A2982 RMK A01 T03200231  RH  059%=      5-min Rain = 0
KMD1 212257Z 17015KT 32/23 A2982 RMK A01 T03190230  RH  059%=      5-min Rain = 0
KMD1 212258Z 16015KT 32/23 A2982 RMK A01 T03190229  RH  059%=      5-min Rain = 0
KMD1 212259Z 16014KT 32/23 A2982 RMK A01 T03190230  RH  059%=      5-min Rain = 0
KMD1 212300Z 17013KT 32/23 A2982 RMK A01 T03190229  RH  059%=      5-min Rain = 0
KMD1 212301Z 17012KT 32/23 A2982 RMK A01 T03190231  RH  060%=      5-min Rain = 0
KMD1 212302Z 17012KT 32/23 A2982 RMK A01 T03190231  RH  060%=      5-min Rain = 0
KMD1 212303Z 17013KT 32/23 A2982 RMK A01 T03180229  RH  059%=      5-min Rain = 0
KMD1 212304Z 17008KT 32/23 A2982 RMK A01 T03190230  RH  059%=      5-min Rain = 0
KMD1 212305Z 17008KT 32/24 A2982 RMK A01 T03190237  RH  062%=      5-min Rain = 0
KMD1 212306Z 16009KT 32/23 A2982 RMK A01 T03200230  RH  059%=      5-min Rain = 0
KMD1 212307Z 16013KT 32/23 A2982 RMK A01 T03210230  RH  059%=      5-min Rain = 0
KMD1 212308Z 18010G15KT 32/23 A2982 RMK A01 T03210231  RH  059%=      5-min Rain = 0
KMD1 212309Z 19010KT 32/23 A2982 RMK A01 T03210233  RH  060%=      5-min Rain = 0
KMD1 212310Z 18013KT 32/23 A2982 RMK A01 T03210230  RH  059%=      5-min Rain = 0
KMD1 212311Z 17010KT 32/23 A2982 RMK A01 T03200228  RH  058%=      5-min Rain = 0
KMD1 212312Z 18011KT 32/23 A2982 RMK A01 T03200232  RH  059%=      5-min Rain = 0
KMD1 212313Z 18010KT 32/23 A2982 RMK A01 T03210229  RH  059%=      5-min Rain = 0
KMD1 212314Z 17010KT 32/23 A2982 RMK A01 T03200230  RH  059%=      5-min Rain = 0
KMD1 212315Z 16010KT 32/23 A2982 RMK A01 T03200230  RH  059%=      5-min Rain = 0
KMD1 212316Z 17011KT 32/23 A2982 RMK A01 T03200227  RH  058%=      5-min Rain = 0
KMD1 212317Z 17013KT 32/23 A2981 RMK A01 T03200228  RH  058%=      5-min Rain = 0
KMD1 212318Z 17012KT 32/23 A2982 RMK A01 T03200230  RH  059%=      5-min Rain = 0
KMD1 212319Z 17011KT 32/23 A2981 RMK A01 T03200229  RH  059%=      5-min Rain = 0
KMD1 212320Z 17012KT 32/23 A2981 RMK A01 T03190227  RH  058%=      5-min Rain = 0
KMD1 212321Z 16010KT 32/23 A2981 RMK A01 T03190231  RH  060%=      5-min Rain = 0
KMD1 212322Z 16011KT 32/23 A2981 RMK A01 T03200233  RH  060%=      5-min Rain = 0
KMD1 212323Z 15012KT 32/24 A2981 RMK A01 T03190235  RH  061%=      5-min Rain = 0
KMD1 212324Z 15015KT 32/23 A2981 RMK A01 T03190228  RH  059%=      5-min Rain = 0
KMD1 212325Z 15016KT 32/23 A2981 RMK A01 T03190228  RH  059%=      5-min Rain = 0
KMD1 212326Z 17015KT 32/23 A2981 RMK A01 T03180226  RH  058%=      5-min Rain = 0
KMD1 212327Z 16013G18KT 32/23 A2981 RMK A01 T03180229  RH  059%=      5-min Rain = 0
KMD1 212328Z 15016KT 32/23 A2981 RMK A01 T03180225  RH  058%=      5-min Rain = 0
KMD1 212329Z 16014KT 32/23 A2981 RMK A01 T03180225  RH  058%=      5-min Rain = 0
KMD1 212330Z 16015G20KT 32/23 A2981 RMK A01 T03190225  RH  058%=      5-min Rain = 0
KMD1 212331Z 16015KT 32/23 A2981 RMK A01 T03180225  RH  058%=      5-min Rain = 0
KMD1 212332Z 16013KT 32/22 A2981 RMK A01 T03170223  RH  058%=      5-min Rain = 0
KMD1 212333Z 16014KT 32/23 A2981 RMK A01 T03170226  RH  058%=      5-min Rain = 0
KMD1 212334Z 17013KT 32/22 A2981 RMK A01 T03170224  RH  058%=      5-min Rain = 0
KMD1 212335Z 16012KT 32/22 A2981 RMK A01 T03170224  RH  058%=      5-min Rain = 0
KMD1 212336Z 16013KT 32/23 A2981 RMK A01 T03170226  RH  058%=      5-min Rain = 0
KMD1 212337Z 16012KT 32/22 A2981 RMK A01 T03180224  RH  058%=      5-min Rain = 0
KMD1 212338Z 16010G15KT 32/22 A2981 RMK A01 T03170223  RH  058%=      5-min Rain = 0
KMD1 212339Z 15010KT 32/23 A2981 RMK A01 T03170226  RH  058%=      5-min Rain = 0
KMD1 212340Z 16009KT 32/23 A2981 RMK A01 T03170228  RH  059%=      5-min Rain = 0
KMD1 212341Z 17007KT 32/23 A2982 RMK A01 T03170232  RH  061%=      5-min Rain = 0
KMD1 212342Z 16011KT 32/23 A2982 RMK A01 T03160229  RH  060%=      5-min Rain = 0
KMD1 212343Z 16011KT 32/23 A2982 RMK A01 T03160227  RH  059%=      5-min Rain = 0
KMD1 212344Z 16011KT 32/23 A2982 RMK A01 T03170232  RH  061%=      5-min Rain = 0
KMD1 212345Z 17011KT 32/23 A2982 RMK A01 T03160230  RH  060%=      5-min Rain = 0
KMD1 212346Z 17011KT 32/23 A2981 RMK A01 T03150226  RH  059%=      5-min Rain = 0
KMD1 212347Z 18014KT 32/23 A2981 RMK A01 T03150227  RH  060%=      5-min Rain = 0
KMD1 212348Z 16012KT 32/23 A2981 RMK A01 T03150229  RH  060%=      5-min Rain = 0
KMD1 212349Z 16012KT 31/23 A2981 RMK A01 T03140232  RH  062%=      5-min Rain = 0
KMD1 212350Z 14014G19KT 31/23 A2981 RMK A01 T03120231  RH  062%=      5-min Rain = 0
KMD1 212351Z 14016KT 31/23 A2981 RMK A01 T03110228  RH  061%=      5-min Rain = 0
KMD1 212352Z 14014KT 31/23 A2981 RMK A01 T03110229  RH  062%=      5-min Rain = 0
KMD1 212353Z 15015KT 31/23 A2981 RMK A01 T03110230  RH  062%=      5-min Rain = 0
KMD1 212354Z 15014G19KT 31/23 A2981 RMK A01 T03120230  RH  062%=      5-min Rain = 0
KMD1 212355Z 14012KT 31/23 A2981 RMK A01 T03120231  RH  062%=      5-min Rain = 0
KMD1 212356Z 15012G17KT 31/23 A2981 RMK A01 T03120232  RH  063%=      5-min Rain = 0
KMD1 212357Z 14015KT 31/23 A2981 RMK A01 T03120229  RH  061%=      5-min Rain = 0
KMD1 212358Z 15015KT 31/23 A2981 RMK A01 T03120228  RH  061%=      5-min Rain = 0
KMD1 212359Z 14013KT 31/23 A2981 RMK A01 T03120229  RH  061%=      5-min Rain = 0
KMD1 220000Z 13010KT 31/23 A2981 RMK A01 T03130232  RH  062%=      5-min Rain = 0
KMD1 220001Z 14013KT 31/23 A2981 RMK A01 T03120231  RH  062%=      5-min Rain = 0
KMD1 220002Z 14015KT 31/23 A2981 RMK A01 T03120229  RH  061%=      5-min Rain = 0
KMD1 220003Z 14014KT 31/23 A2981 RMK A01 T03120230  RH  062%=      5-min Rain = 0
KMD1 220004Z 15011KT 31/23 A2981 RMK A01 T03110232  RH  063%=      5-min Rain = 0
KMD1 220005Z 14014KT 31/23 A2981 RMK A01 T03100230  RH  062%=      5-min Rain = 0
KMD1 220006Z 14014KT 31/23 A2982 RMK A01 T03100231  RH  063%=      5-min Rain = 0
KMD1 220007Z 14013KT 31/23 A2982 RMK A01 T03110232  RH  063%=      5-min Rain = 0
KMD1 220008Z 16009KT 31/23 A2982 RMK A01 T03100231  RH  063%=      5-min Rain = 0
KMD1 220009Z 15008KT 31/23 A2982 RMK A01 T03110232  RH  063%=      5-min Rain = 0
KMD1 220010Z 14011KT 31/23 A2982 RMK A01 T03110234  RH  064%=      5-min Rain = 0
KMD1 220011Z 14010KT 31/23 A2982 RMK A01 T03100232  RH  063%=      5-min Rain = 0
KMD1 220012Z 15011KT 31/23 A2982 RMK A01 T03090231  RH  063%=      5-min Rain = 0
KMD1 220013Z 15010KT 31/23 A2982 RMK A01 T03090230  RH  063%=      5-min Rain = 0
KMD1 220014Z 15010KT 31/23 A2982 RMK A01 T03090230  RH  063%=      5-min Rain = 0
KMD1 220015Z 14011KT 31/23 A2982 RMK A01 T03090232  RH  063%=      5-min Rain = 0
KMD1 220016Z 14013KT 31/23 A2982 RMK A01 T03090229  RH  063%=      5-min Rain = 0
KMD1 220017Z 14012KT 31/23 A2982 RMK A01 T03090229  RH  063%=      5-min Rain = 0
KMD1 220018Z 14013KT 31/23 A2982 RMK A01 T03090227  RH  062%=      5-min Rain = 0
KMD1 220019Z 15011KT 31/23 A2982 RMK A01 T03090228  RH  062%=      5-min Rain = 0
KMD1 220020Z 15009KT 31/23 A2982 RMK A01 T03090229  RH  062%=      5-min Rain = 0
KMD1 220021Z 15010KT 31/23 A2982 RMK A01 T03090230  RH  063%=      5-min Rain = 0
KMD1 220022Z 15010KT 31/23 A2982 RMK A01 T03090228  RH  062%=      5-min Rain = 0
KMD1 220023Z 13010KT 31/23 A2982 RMK A01 T03100230  RH  062%=      5-min Rain = 0
KMD1 220024Z 14010KT 31/23 A2982 RMK A01 T03090230  RH  063%=      5-min Rain = 0
KMD1 220025Z 14010KT 31/23 A2983 RMK A01 T03090229  RH  063%=      5-min Rain = 0
KMD1 220026Z 14010KT 31/23 A2983 RMK A01 T03080231  RH  063%=      5-min Rain = 0
KMD1 220027Z 14012KT 31/23 A2983 RMK A01 T03070230  RH  063%=      5-min Rain = 0
KMD1 220028Z 14012KT 31/23 A2983 RMK A01 T03060229  RH  063%=      5-min Rain = 0
KMD1 220029Z 14009KT 31/23 A2983 RMK A01 T03060230  RH  064%=      5-min Rain = 0
KMD1 220030Z 13008KT 31/23 A2983 RMK A01 T03060232  RH  065%=      5-min Rain = 0
KMD1 220031Z 13012KT 30/23 A2983 RMK A01 T03040233  RH  066%=      5-min Rain = 0
KMD1 220032Z 13011KT 30/23 A2983 RMK A01 T03030229  RH  065%=      5-min Rain = 0
KMD1 220033Z 14010KT 30/23 A2983 RMK A01 T03030230  RH  065%=      5-min Rain = 0
KMD1 220034Z 15013KT 30/23 A2983 RMK A01 T03030229  RH  065%=      5-min Rain = 0
KMD1 220035Z 14011G16KT 30/23 A2983 RMK A01 T03030227  RH  064%=      5-min Rain = 0
KMD1 220036Z 14010KT 30/23 A2983 RMK A01 T03040230  RH  064%=      5-min Rain = 0
KMD1 220037Z 15007KT 30/23 A2983 RMK A01 T03040230  RH  065%=      5-min Rain = 0
KMD1 220038Z 14008KT 30/23 A2983 RMK A01 T03030232  RH  065%=      5-min Rain = 0
KMD1 220039Z 14010KT 30/23 A2983 RMK A01 T03020230  RH  065%=      5-min Rain = 0
KMD1 220040Z 15011KT 30/23 A2983 RMK A01 T03010229  RH  065%=      5-min Rain = 0
KMD1 220041Z 14009KT 30/23 A2983 RMK A01 T03010228  RH  065%=      5-min Rain = 0
KMD1 220042Z 14011KT 30/23 A2983 RMK A01 T03020228  RH  065%=      5-min Rain = 0
KMD1 220043Z 15011KT 30/23 A2983 RMK A01 T03020227  RH  064%=      5-min Rain = 0
KMD1 220044Z 15008KT 30/23 A2983 RMK A01 T03030227  RH  064%=      5-min Rain = 0
KMD1 220045Z 14010KT 30/23 A2983 RMK A01 T03030228  RH  064%=      5-min Rain = 0
KMD1 220046Z 14010KT 30/23 A2983 RMK A01 T03030228  RH  064%=      5-min Rain = 0
KMD1 220047Z 15010KT 30/23 A2983 RMK A01 T03030228  RH  064%=      5-min Rain = 0
KMD1 220048Z 15012KT 30/23 A2983 RMK A01 T03020226  RH  064%=      5-min Rain = 0
KMD1 220049Z 14009KT 30/23 A2983 RMK A01 T03030227  RH  064%=      5-min Rain = 0
KMD1 220050Z 14009KT 30/23 A2983 RMK A01 T03030229  RH  065%=      5-min Rain = 0
KMD1 220051Z 14007KT 30/23 A2983 RMK A01 T03010229  RH  065%=      5-min Rain = 0
KMD1 220052Z 14009KT 30/23 A2983 RMK A01 T03000229  RH  065%=      5-min Rain = 0
KMD1 220053Z 13009KT 30/23 A2983 RMK A01 T03000228  RH  065%=      5-min Rain = 0
KMD1 220054Z 13011KT 30/23 A2983 RMK A01 T03000228  RH  066%=      5-min Rain = 0
KMD1 220055Z 13011KT 30/23 A2983 RMK A01 T03000228  RH  066%=      5-min Rain = 0
KMD1 220056Z 14009KT 30/23 A2983 RMK A01 T02990228  RH  066%=      5-min Rain = 0
KMD1 220057Z 14009KT 30/23 A2983 RMK A01 T02980228  RH  066%=      5-min Rain = 0
KMD1 220058Z 14011KT 30/23 A2983 RMK A01 T02980228  RH  066%=      5-min Rain = 0
KMD1 220059Z 13010KT 30/23 A2983 RMK A01 T02980226  RH  065%=      5-min Rain = 0
KMD1 220100Z 13012KT 30/23 A2983 RMK A01 T02980226  RH  065%=      5-min Rain = 0
KMD1 220101Z 14011KT 30/23 A2983 RMK A01 T02980227  RH  066%=      5-min Rain = 0
KMD1 220102Z 14012KT 30/23 A2983 RMK A01 T02970227  RH  066%=      5-min Rain = 0
KMD1 220103Z 12012KT 30/23 A2983 RMK A01 T02970226  RH  066%=      5-min Rain = 0
KMD1 220104Z 14011KT 30/23 A2983 RMK A01 T02970225  RH  065%=      5-min Rain = 0
KMD1 220105Z 13011KT 30/23 A2983 RMK A01 T02970225  RH  065%=      5-min Rain = 0
KMD1 220106Z 13010KT 30/23 A2983 RMK A01 T02980225  RH  065%=      5-min Rain = 0
KMD1 220107Z 14011KT 30/23 A2983 RMK A01 T02970225  RH  065%=      5-min Rain = 0
KMD1 220108Z 13012KT 30/22 A2983 RMK A01 T02980224  RH  065%=      5-min Rain = 0
KMD1 220109Z 14010KT 30/23 A2983 RMK A01 T02980225  RH  065%=      5-min Rain = 0
KMD1 220110Z 13008KT 30/23 A2983 RMK A01 T02980226  RH  065%=      5-min Rain = 0
KMD1 220111Z 14008KT 30/23 A2983 RMK A01 T02970227  RH  066%=      5-min Rain = 0
KMD1 220112Z 13009KT 30/23 A2983 RMK A01 T02970226  RH  066%=      5-min Rain = 0
KMD1 220113Z 13008KT 30/23 A2983 RMK A01 T02960227  RH  066%=      5-min Rain = 0
KMD1 220114Z 13009KT 30/23 A2983 RMK A01 T02950227  RH  067%=      5-min Rain = 0
KMD1 220115Z 13008KT 29/23 A2983 RMK A01 T02940227  RH  067%=      5-min Rain = 0
KMD1 220116Z 13008KT 29/23 A2983 RMK A01 T02930227  RH  068%=      5-min Rain = 0
KMD1 220117Z 12009KT 29/23 A2983 RMK A01 T02930227  RH  068%=      5-min Rain = 0
KMD1 220118Z 13008KT 29/23 A2983 RMK A01 T02920227  RH  068%=      5-min Rain = 0
KMD1 220119Z 13007KT 29/23 A2983 RMK A01 T02910228  RH  069%=      5-min Rain = 0
KMD1 220120Z 14009KT 29/23 A2983 RMK A01 T02910227  RH  069%=      5-min Rain = 0
KMD1 220121Z 13009KT 29/23 A2983 RMK A01 T02900226  RH  068%=      5-min Rain = 0
KMD1 220122Z 13007KT 29/23 A2983 RMK A01 T02900226  RH  068%=      5-min Rain = 0
KMD1 220123Z 13008KT 29/23 A2983 RMK A01 T02910227  RH  068%=      5-min Rain = 0
KMD1 220124Z 14010KT 29/23 A2984 RMK A01 T02910226  RH  068%=      5-min Rain = 0
KMD1 220125Z 13009KT 29/23 A2984 RMK A01 T02910225  RH  067%=      5-min Rain = 0
KMD1 220126Z 13009KT 29/23 A2984 RMK A01 T02920226  RH  068%=      5-min Rain = 0
KMD1 220127Z 14008KT 29/23 A2984 RMK A01 T02920227  RH  068%=      5-min Rain = 0
KMD1 220128Z 13010KT 29/23 A2984 RMK A01 T02910226  RH  068%=      5-min Rain = 0
KMD1 220129Z 13009KT 29/23 A2984 RMK A01 T02910225  RH  068%=      5-min Rain = 0
KMD1 220130Z 14008KT 29/23 A2984 RMK A01 T02910226  RH  068%=      5-min Rain = 0
KMD1 220131Z 14008KT 29/23 A2984 RMK A01 T02900226  RH  068%=      5-min Rain = 0
KMD1 220132Z 13008KT 29/23 A2984 RMK A01 T02900226  RH  069%=      5-min Rain = 0
KMD1 220133Z 13009KT 29/23 A2984 RMK A01 T02890225  RH  068%=      5-min Rain = 0
KMD1 220134Z 13014KT 29/22 A2983 RMK A01 T02890223  RH  067%=      5-min Rain = 0
KMD1 220135Z 13011KT 29/22 A2983 RMK A01 T02900222  RH  067%=      5-min Rain = 0
KMD1 220136Z 14008KT 29/22 A2984 RMK A01 T02910224  RH  067%=      5-min Rain = 0
KMD1 220137Z 14009G15KT 29/23 A2984 RMK A01 T02910225  RH  068%=      5-min Rain = 0
KMD1 220138Z 14011KT 29/22 A2983 RMK A01 T02900223  RH  067%=      5-min Rain = 0
KMD1 220139Z 14009KT 29/22 A2983 RMK A01 T02910223  RH  067%=      5-min Rain = 0
KMD1 220140Z 13008KT 29/22 A2984 RMK A01 T02920224  RH  067%=      5-min Rain = 0
KMD1 220141Z 13009KT 29/23 A2984 RMK A01 T02910225  RH  068%=      5-min Rain = 0
KMD1 220142Z 14011KT 29/22 A2984 RMK A01 T02900224  RH  067%=      5-min Rain = 0
KMD1 220143Z 14011KT 29/22 A2984 RMK A01 T02900223  RH  067%=      5-min Rain = 0
KMD1 220144Z 13010KT 29/22 A2984 RMK A01 T02900222  RH  067%=      5-min Rain = 0
KMD1 220145Z 13011KT 29/22 A2984 RMK A01 T02900222  RH  067%=      5-min Rain = 0
KMD1 220146Z 14009KT 29/22 A2984 RMK A01 T02900222  RH  067%=      5-min Rain = 0
KMD1 220147Z 13009KT 29/22 A2984 RMK A01 T02900223  RH  067%=      5-min Rain = 0
KMD1 220148Z 14010KT 29/22 A2984 RMK A01 T02900223  RH  067%=      5-min Rain = 0
KMD1 220149Z 14010KT 29/22 A2984 RMK A01 T02900223  RH  067%=      5-min Rain = 0
KMD1 220150Z 14011KT 29/22 A2984 RMK A01 T02890221  RH  067%=      5-min Rain = 0
KMD1 220151Z 14010KT 29/22 A2984 RMK A01 T02900221  RH  066%=      5-min Rain = 0
KMD1 220152Z 14009KT 29/22 A2984 RMK A01 T02910223  RH  067%=      5-min Rain = 0
KMD1 220153Z 15009G14KT 29/22 A2984 RMK A01 T02900223  RH  067%=      5-min Rain = 0
KMD1 220154Z 14010KT 29/22 A2984 RMK A01 T02900222  RH  067%=      5-min Rain = 0
KMD1 220155Z 14010KT 29/22 A2984 RMK A01 T02900222  RH  067%=      5-min Rain = 0
KMD1 220156Z 14009KT 29/22 A2984 RMK A01 T02900222  RH  067%=      5-min Rain = 0
KMD1 220157Z 14008KT 29/22 A2985 RMK A01 T02900222  RH  067%=      5-min Rain = 0
KMD1 220158Z 14010KT 29/22 A2985 RMK A01 T02900222  RH  067%=      5-min Rain = 0
KMD1 220159Z 15009KT 29/22 A2985 RMK A01 T02900221  RH  067%=      5-min Rain = 0
KMD1 220200Z 15010KT 29/22 A2985 RMK A01 T02900222  RH  066%=      5-min Rain = 0
KMD1 220201Z 15009KT 29/22 A2985 RMK A01 T02910222  RH  067%=      5-min Rain = 0
KMD1 220202Z 14008KT 29/22 A2985 RMK A01 T02900222  RH  067%=      5-min Rain = 0
KMD1 220203Z 14008KT 29/22 A2985 RMK A01 T02890223  RH  067%=      5-min Rain = 0
KMD1 220204Z 15009KT 29/22 A2985 RMK A01 T02890222  RH  067%=      5-min Rain = 0
KMD1 220205Z 15009KT 29/22 A2985 RMK A01 T02890222  RH  067%=      5-min Rain = 0
KMD1 220206Z 14008KT 29/22 A2985 RMK A01 T02890222  RH  067%=      5-min Rain = 0
KMD1 220207Z 15006KT 29/22 A2986 RMK A01 T02890223  RH  067%=      5-min Rain = 0
KMD1 220208Z 15006KT 29/22 A2986 RMK A01 T02890224  RH  068%=      5-min Rain = 0
KMD1 220209Z 15008KT 29/22 A2986 RMK A01 T02880223  RH  068%=      5-min Rain = 0
KMD1 220210Z 15009KT 29/22 A2986 RMK A01 T02870223  RH  068%=      5-min Rain = 0
KMD1 220211Z 15010KT 29/22 A2986 RMK A01 T02870222  RH  068%=      5-min Rain = 0
KMD1 220212Z 14008KT 29/22 A2986 RMK A01 T02880222  RH  068%=      5-min Rain = 0
KMD1 220213Z 14010KT 29/22 A2986 RMK A01 T02880222  RH  068%=      5-min Rain = 0
KMD1 220214Z 15009KT 29/22 A2986 RMK A01 T02880223  RH  068%=      5-min Rain = 0
KMD1 220215Z 15010KT 29/22 A2986 RMK A01 T02880222  RH  068%=      5-min Rain = 0
KMD1 220216Z 15008KT 29/22 A2986 RMK A01 T02880222  RH  068%=      5-min Rain = 0
KMD1 220217Z 14009KT 29/22 A2986 RMK A01 T02880222  RH  068%=      5-min Rain = 0
KMD1 220218Z 14009KT 29/22 A2986 RMK A01 T02880222  RH  068%=      5-min Rain = 0
KMD1 220219Z 14008KT 29/22 A2986 RMK A01 T02880222  RH  068%=      5-min Rain = 0
KMD1 220220Z 14008KT 29/22 A2986 RMK A01 T02880223  RH  068%=      5-min Rain = 0
KMD1 220221Z 13010KT 29/22 A2986 RMK A01 T02880223  RH  068%=      5-min Rain = 0
KMD1 220222Z 14007KT 29/22 A2986 RMK A01 T02880223  RH  068%=      5-min Rain = 0
KMD1 220223Z 14006KT 29/22 A2986 RMK A01 T02870223  RH  069%=      5-min Rain = 0
KMD1 220224Z 14008KT 29/22 A2986 RMK A01 T02860223  RH  069%=      5-min Rain = 0
KMD1 220225Z 14007KT 29/22 A2986 RMK A01 T02860223  RH  069%=      5-min Rain = 0
KMD1 220226Z 14008KT 29/22 A2986 RMK A01 T02860223  RH  069%=      5-min Rain = 0
KMD1 220227Z 14007KT 29/22 A2986 RMK A01 T02850222  RH  069%=      5-min Rain = 0
KMD1 220228Z 13008KT 29/22 A2986 RMK A01 T02860223  RH  069%=      5-min Rain = 0
KMD1 220229Z 14008KT 29/22 A2986 RMK A01 T02860223  RH  069%=      5-min Rain = 0
KMD1 220230Z 14008KT 29/22 A2986 RMK A01 T02850222  RH  069%=      5-min Rain = 0
KMD1 220231Z 15010KT 29/22 A2986 RMK A01 T02850222  RH  069%=      5-min Rain = 0
KMD1 220232Z 14008KT 29/22 A2987 RMK A01 T02860221  RH  068%=      5-min Rain = 0
KMD1 220233Z 13009KT 29/22 A2987 RMK A01 T02870223  RH  068%=      5-min Rain = 0
KMD1 220234Z 14008KT 29/22 A2987 RMK A01 T02870223  RH  068%=      5-min Rain = 0
KMD1 220235Z 14009KT 29/22 A2987 RMK A01 T02860223  RH  069%=      5-min Rain = 0
KMD1 220236Z 15009KT 29/22 A2987 RMK A01 T02850222  RH  069%=      5-min Rain = 0
KMD1 220237Z 13008KT 29/22 A2987 RMK A01 T02850222  RH  069%=      5-min Rain = 0
KMD1 220238Z 14006KT 29/22 A2987 RMK A01 T02850223  RH  069%=      5-min Rain = 0
KMD1 220239Z 14006KT 28/22 A2987 RMK A01 T02840223  RH  070%=      5-min Rain = 0
KMD1 220240Z 13008KT 28/22 A2987 RMK A01 T02830223  RH  070%=      5-min Rain = 0
KMD1 220241Z 14007KT 28/22 A2987 RMK A01 T02830223  RH  070%=      5-min Rain = 0
KMD1 220242Z 14008KT 28/22 A2987 RMK A01 T02820223  RH  070%=      5-min Rain = 0
KMD1 220243Z 13008KT 28/22 A2986 RMK A01 T02820222  RH  070%=      5-min Rain = 0
KMD1 220244Z 14008KT 28/22 A2986 RMK A01 T02820222  RH  070%=      5-min Rain = 0
KMD1 220245Z 14008KT 28/22 A2986 RMK A01 T02820222  RH  070%=      5-min Rain = 0
KMD1 220246Z 14006KT 28/22 A2986 RMK A01 T02820223  RH  070%=      5-min Rain = 0
KMD1 220247Z 13006KT 28/22 A2986 RMK A01 T02820224  RH  071%=      5-min Rain = 0
KMD1 220248Z 13006KT 28/22 A2986 RMK A01 T02810223  RH  071%=      5-min Rain = 0
KMD1 220249Z 14006KT 28/22 A2986 RMK A01 T02790223  RH  071%=      5-min Rain = 0
KMD1 220250Z 14007KT 28/22 A2986 RMK A01 T02790224  RH  072%=      5-min Rain = 0
KMD1 220251Z 14008KT 28/22 A2986 RMK A01 T02790223  RH  072%=      5-min Rain = 0
KMD1 220252Z 14008KT 28/22 A2986 RMK A01 T02790221  RH  071%=      5-min Rain = 0
KMD1 220253Z 14007KT 28/22 A2986 RMK A01 T02800222  RH  071%=      5-min Rain = 0
KMD1 220254Z 14006KT 28/22 A2986 RMK A01 T02800222  RH  071%=      5-min Rain = 0
KMD1 220255Z 15007KT 28/22 A2986 RMK A01 T02800223  RH  071%=      5-min Rain = 0
KMD1 220256Z 14006KT 28/22 A2986 RMK A01 T02800223  RH  071%=      5-min Rain = 0
KMD1 220257Z 14005KT 28/22 A2987 RMK A01 T02800223  RH  071%=      5-min Rain = 0
KMD1 220258Z 14006KT 28/22 A2987 RMK A01 T02790224  RH  072%=      5-min Rain = 0
KMD1 220259Z 14006KT 28/22 A2987 RMK A01 T02790223  RH  072%=      5-min Rain = 0
KMD1 220300Z 14006KT 28/22 A2987 RMK A01 T02780223  RH  072%=      5-min Rain = 0
KMD1 220301Z 14006KT 28/22 A2987 RMK A01 T02780223  RH  072%=      5-min Rain = 0
KMD1 220302Z 14008KT 28/22 A2987 RMK A01 T02780223  RH  072%=      5-min Rain = 0
KMD1 220303Z 13007KT 28/22 A2987 RMK A01 T02780223  RH  072%=      5-min Rain = 0
KMD1 220304Z 14006KT 28/22 A2987 RMK A01 T02780223  RH  072%=      5-min Rain = 0
KMD1 220305Z 13008KT 28/22 A2987 RMK A01 T02780222  RH  072%=      5-min Rain = 0
KMD1 220306Z 14007KT 28/22 A2987 RMK A01 T02780223  RH  072%=      5-min Rain = 0
KMD1 220307Z 13008KT 28/22 A2987 RMK A01 T02780223  RH  072%=      5-min Rain = 0
KMD1 220308Z 14007KT 28/22 A2987 RMK A01 T02770223  RH  072%=      5-min Rain = 0
KMD1 220309Z 14008KT 28/22 A2987 RMK A01 T02760222  RH  072%=      5-min Rain = 0
KMD1 220310Z 14006KT 28/22 A2987 RMK A01 T02760222  RH  072%=      5-min Rain = 0
KMD1 220311Z 14007KT 28/22 A2987 RMK A01 T02770223  RH  072%=      5-min Rain = 0
KMD1 220312Z 13007KT 28/22 A2987 RMK A01 T02760223  RH  073%=      5-min Rain = 0
KMD1 220313Z 14007KT 28/22 A2987 RMK A01 T02760223  RH  073%=      5-min Rain = 0
KMD1 220314Z 13006KT 28/22 A2987 RMK A01 T02760222  RH  073%=      5-min Rain = 0
KMD1 220315Z 14007KT 28/22 A2987 RMK A01 T02760222  RH  073%=      5-min Rain = 0
KMD1 220316Z 14007KT 28/22 A2988 RMK A01 T02760222  RH  073%=      5-min Rain = 0
KMD1 220317Z 14007KT 28/22 A2988 RMK A01 T02760222  RH  072%=      5-min Rain = 0
KMD1 220318Z 14007KT 28/22 A2988 RMK A01 T02760221  RH  072%=      5-min Rain = 0
KMD1 220319Z 13009KT 28/22 A2988 RMK A01 T02760222  RH  072%=      5-min Rain = 0
KMD1 220320Z 14009KT 28/22 A2988 RMK A01 T02760221  RH  072%=      5-min Rain = 0
KMD1 220321Z 16007KT 28/22 A2988 RMK A01 T02770221  RH  072%=      5-min Rain = 0
KMD1 220322Z 15007KT 28/22 A2988 RMK A01 T02780223  RH  072%=      5-min Rain = 0
KMD1 220323Z 14009KT 28/22 A2988 RMK A01 T02760222  RH  072%=      5-min Rain = 0
KMD1 220324Z 16011KT 28/22 A2989 RMK A01 T02760221  RH  072%=      5-min Rain = 0
KMD1 220325Z 14010KT 28/22 A2989 RMK A01 T02770221  RH  071%=      5-min Rain = 0
KMD1 220326Z 15014KT 28/22 A2989 RMK A01 T02780221  RH  071%=      5-min Rain = 0
KMD1 220327Z 14011KT 28/22 A2989 RMK A01 T02780221  RH  071%=      5-min Rain = 0
KMD1 220328Z 16013KT 28/22 A2989 RMK A01 T02790221  RH  071%=      5-min Rain = 0
KMD1 220329Z 15009KT 28/22 A2989 RMK A01 T02790223  RH  071%=      5-min Rain = 0
KMD1 220330Z 15011KT 28/22 A2989 RMK A01 T02790223  RH  072%=      5-min Rain = 0
KMD1 220331Z 16012KT 28/22 A2989 RMK A01 T02780222  RH  072%=      5-min Rain = 0
KMD1 220332Z 15013KT 28/22 A2989 RMK A01 T02790222  RH  071%=      5-min Rain = 0
KMD1 220333Z 15014KT 28/22 A2989 RMK A01 T02790222  RH  071%=      5-min Rain = 0
KMD1 220334Z 15011KT 28/22 A2989 RMK A01 T02790222  RH  071%=      5-min Rain = 0
KMD1 220335Z 14013KT 28/22 A2989 RMK A01 T02790222  RH  071%=      5-min Rain = 0
KMD1 220336Z 15013G18KT 28/22 A2989 RMK A01 T02790222  RH  071%=      5-min Rain = 0
KMD1 220337Z 15011KT 28/22 A2989 RMK A01 T02800222  RH  071%=      5-min Rain = 0
KMD1 220338Z 15010KT 28/22 A299 RMK A01 T02800223  RH  071%=      5-min Rain = 0
KMD1 220339Z 15015KT 28/22 A299 RMK A01 T02790223  RH  071%=      5-min Rain = 0
KMD1 220340Z 14011KT 28/22 A299 RMK A01 T02790223  RH  071%=      5-min Rain = 0
KMD1 220341Z 14012KT 28/22 A299 RMK A01 T02790223  RH  071%=      5-min Rain = 0
KMD1 220342Z 15010KT 28/22 A299 RMK A01 T02790223  RH  072%=      5-min Rain = 0
KMD1 220343Z 15011KT 28/22 A299 RMK A01 T02780223  RH  072%=      5-min Rain = 0
KMD1 220344Z 15010KT 28/22 A299 RMK A01 T02780223  RH  072%=      5-min Rain = 0
KMD1 220345Z 15011KT 28/22 A299 RMK A01 T02780223  RH  072%=      5-min Rain = 0
KMD1 220346Z 14011KT 28/22 A299 RMK A01 T02780223  RH  072%=      5-min Rain = 0
KMD1 220347Z 15010KT 28/22 A299 RMK A01 T02780223  RH  072%=      5-min Rain = 0
KMD1 220348Z 16012KT 28/22 A299 RMK A01 T02770224  RH  073%=      5-min Rain = 0
KMD1 220349Z 15010KT 28/22 A299 RMK A01 T02770224  RH  073%=      5-min Rain = 0
KMD1 220350Z 15011KT 28/22 A299 RMK A01 T02770224  RH  073%=      5-min Rain = 0
KMD1 220351Z 15011KT 28/22 A299 RMK A01 T02770223  RH  072%=      5-min Rain = 0
KMD1 220352Z 15011KT 28/22 A299 RMK A01 T02770223  RH  072%=      5-min Rain = 0
KMD1 220353Z 15010KT 28/22 A299 RMK A01 T02770224  RH  073%=      5-min Rain = 0
KMD1 220354Z 15009KT 28/22 A2991 RMK A01 T02770224  RH  073%=      5-min Rain = 0
KMD1 220355Z 15012KT 28/22 A2991 RMK A01 T02770224  RH  073%=      5-min Rain = 0
KMD1 220356Z 15011KT 28/22 A2991 RMK A01 T02760224  RH  073%=      5-min Rain = 0
KMD1 220357Z 14008KT 28/22 A299 RMK A01 T02760224  RH  073%=      5-min Rain = 0
KMD1 220358Z 14010KT 28/23 A299 RMK A01 T02760225  RH  074%=      5-min Rain = 0
KMD1 220359Z 15011KT 28/22 A299 RMK A01 T02750224  RH  074%=      5-min Rain = 0
KMD1 220400Z 15009KT 28/23 A299 RMK A01 T02750225  RH  074%=      5-min Rain = 0
KMD1 220401Z 15008KT 28/23 A299 RMK A01 T02750225  RH  074%=      5-min Rain = 0
KMD1 220402Z 14011KT 27/23 A299 RMK A01 T02740225  RH  075%=      5-min Rain = 0
KMD1 220403Z 14014KT 27/23 A299 RMK A01 T02730225  RH  075%=      5-min Rain = 0
KMD1 220404Z 14013KT 27/23 A299 RMK A01 T02740225  RH  075%=      5-min Rain = 0
KMD1 220405Z 14012G18KT 27/23 A299 RMK A01 T02740225  RH  074%=      5-min Rain = 0
KMD1 220406Z 15012KT 28/23 A299 RMK A01 T02750225  RH  074%=      5-min Rain = 0
KMD1 220407Z 14012G17KT 28/23 A299 RMK A01 T02750226  RH  074%=      5-min Rain = 0
KMD1 220408Z 14012G17KT 28/23 A299 RMK A01 T02750226  RH  074%=      5-min Rain = 0
KMD1 220409Z 14014KT 28/23 A299 RMK A01 T02750225  RH  074%=      5-min Rain = 0
KMD1 220410Z 14011KT 28/23 A299 RMK A01 T02750225  RH  074%=      5-min Rain = 0
KMD1 220411Z 15012KT 28/23 A299 RMK A01 T02750226  RH  075%=      5-min Rain = 0
KMD1 220412Z 14011KT 28/23 A299 RMK A01 T02750226  RH  075%=      5-min Rain = 0
KMD1 220413Z 14013KT 28/23 A299 RMK A01 T02750226  RH  075%=      5-min Rain = 0
KMD1 220414Z 15014KT 28/23 A299 RMK A01 T02750227  RH  075%=      5-min Rain = 0
KMD1 220415Z 15014KT 27/23 A299 RMK A01 T02740226  RH  075%=      5-min Rain = 0
KMD1 220416Z 14010KT 28/23 A299 RMK A01 T02750226  RH  075%=      5-min Rain = 0
KMD1 220417Z 15009KT 27/23 A299 RMK A01 T02740226  RH  075%=      5-min Rain = 0
KMD1 220418Z 15009KT 27/23 A299 RMK A01 T02740227  RH  075%=      5-min Rain = 0
KMD1 220419Z 13007KT 27/23 A299 RMK A01 T02730227  RH  076%=      5-min Rain = 0
KMD1 220420Z 13006KT 27/23 A299 RMK A01 T02730227  RH  076%=      5-min Rain = 0
KMD1 220421Z 14008KT 27/23 A299 RMK A01 T02720227  RH  077%=      5-min Rain = 0
KMD1 220422Z 13009KT 27/23 A299 RMK A01 T02700226  RH  077%=      5-min Rain = 0
KMD1 220423Z 14008KT 27/23 A2991 RMK A01 T02690226  RH  077%=      5-min Rain = 0
KMD1 220424Z 13007KT 27/23 A2991 RMK A01 T02690226  RH  077%=      5-min Rain = 0
KMD1 220425Z 14007KT 27/23 A2991 RMK A01 T02690226  RH  077%=      5-min Rain = 0
KMD1 220426Z 14007KT 27/23 A2991 RMK A01 T02690226  RH  077%=      5-min Rain = 0
KMD1 220427Z 15007KT 27/23 A2991 RMK A01 T02690225  RH  077%=      5-min Rain = 0
KMD1 220428Z 14010G16KT 27/23 A2991 RMK A01 T02690226  RH  077%=      5-min Rain = 0
KMD1 220429Z 15012KT 27/23 A2991 RMK A01 T02690225  RH  077%=      5-min Rain = 0
KMD1 220430Z 15012KT 27/23 A2991 RMK A01 T02700226  RH  077%=      5-min Rain = 0
KMD1 220431Z 15013KT 27/23 A2991 RMK A01 T02700226  RH  077%=      5-min Rain = 0
KMD1 220432Z 14011KT 27/23 A2992 RMK A01 T02710226  RH  076%=      5-min Rain = 0
KMD1 220433Z 15011KT 27/23 A2992 RMK A01 T02710226  RH  076%=      5-min Rain = 0
KMD1 220434Z 15012KT 27/23 A2992 RMK A01 T02710227  RH  076%=      5-min Rain = 0
KMD1 220435Z 15011KT 27/23 A2992 RMK A01 T02710226  RH  076%=      5-min Rain = 0
KMD1 220436Z 15010KT 27/23 A2992 RMK A01 T02710227  RH  077%=      5-min Rain = 0
KMD1 220437Z 15012KT 27/23 A2992 RMK A01 T02710227  RH  077%=      5-min Rain = 0
KMD1 220438Z 15011G16KT 27/23 A2992 RMK A01 T02700226  RH  077%=      5-min Rain = 0
KMD1 220439Z 14011KT 27/23 A2992 RMK A01 T02700227  RH  077%=      5-min Rain = 0
KMD1 220440Z 14012KT 27/23 A2992 RMK A01 T02700227  RH  077%=      5-min Rain = 0
KMD1 220441Z 16014KT 27/23 A2993 RMK A01 T02700227  RH  077%=      5-min Rain = 0
KMD1 220442Z 16013G18KT 27/23 A2993 RMK A01 T02700226  RH  077%=      5-min Rain = 0
KMD1 220443Z 15013KT 27/23 A2993 RMK A01 T02700226  RH  077%=      5-min Rain = 0
KMD1 220444Z 16013KT 27/23 A2993 RMK A01 T02710226  RH  077%=      5-min Rain = 0
KMD1 220445Z 17014KT 27/23 A2993 RMK A01 T02710227  RH  077%=      5-min Rain = 0
KMD1 220446Z 16010KT 27/23 A2993 RMK A01 T02710227  RH  077%=      5-min Rain = 0
KMD1 220447Z 16009KT 27/23 A2993 RMK A01 T02710227  RH  077%=      5-min Rain = 0
KMD1 220448Z 15011KT 27/23 A2993 RMK A01 T02700227  RH  077%=      5-min Rain = 0
KMD1 220449Z 15013KT 27/23 A2993 RMK A01 T02700227  RH  077%=      5-min Rain = 0
KMD1 220450Z 15011KT 27/23 A2993 RMK A01 T02700227  RH  077%=      5-min Rain = 0
KMD1 220451Z 16010KT 27/23 A2993 RMK A01 T02700227  RH  077%=      5-min Rain = 0
KMD1 220452Z 15009KT 27/23 A2993 RMK A01 T02700228  RH  078%=      5-min Rain = 0
KMD1 220453Z 15010KT 27/23 A2993 RMK A01 T02690228  RH  078%=      5-min Rain = 0
KMD1 220454Z 15015KT 27/23 A2993 RMK A01 T02690227  RH  078%=      5-min Rain = 0
KMD1 220455Z 16013G18KT 27/23 A2993 RMK A01 T02690227  RH  078%=      5-min Rain = 0
KMD1 220456Z 15013KT 27/23 A2993 RMK A01 T02690226  RH  077%=      5-min Rain = 0
KMD1 220457Z 15013KT 27/23 A2993 RMK A01 T02690226  RH  077%=      5-min Rain = 0
KMD1 220458Z 16010KT 27/23 A2993 RMK A01 T02700227  RH  078%=      5-min Rain = 0
KMD1 220459Z 15010G16KT 27/23 A2993 RMK A01 T02690227  RH  078%=      5-min Rain = 0

Page generated in 0.0703 seconds.